<?xml version="1.0" encoding="UTF-8" standalone="no" ?>
<gpx xmlns="http://www.topografix.com/GPX/1/1" xmlns:xsi="http://www.w3.org/2001/XMLSchema-instance" xsi:schemaLocation="http://www.topografix.com/GPX/1/1 http://www.topografix.com/GPX/1/1/gpx.xsd" version="1.1" creator="VisuGPX - https://www.visugpx.com">
  <metadata>
    <name>Course de la Résistance - circuit familial</name>
    <desc><![CDATA[Course de la Résistance - 8 mai 2018
Circuit familial
Mens / Prébois / Tréminis
1 col]]></desc>
  </metadata>
  <wpt lat="44.81685" lon="5.75022">
    <ele>777</ele>
    <name><![CDATA[Course de la Résistance - circuit familial]]></name>
    <type><![CDATA[Generic]]></type>
  </wpt>
  <trk>
    <name><![CDATA[Course de la Résistance - circuit familial]]></name>
    <trkseg>
      <trkpt lat="44.81685" lon="5.75022">
        <ele>777</ele>
        <time>2017-11-25T10:55:40Z</time>
      </trkpt>
      <trkpt lat="44.81671" lon="5.74864">
        <ele>770</ele>
        <time>2017-11-25T10:56:00Z</time>
      </trkpt>
      <trkpt lat="44.81666" lon="5.74786">
        <ele>769</ele>
        <time>2017-11-25T10:56:11Z</time>
      </trkpt>
      <trkpt lat="44.81652" lon="5.74646">
        <ele>765</ele>
        <time>2017-11-25T10:56:24Z</time>
      </trkpt>
      <trkpt lat="44.81641" lon="5.74498">
        <ele>758</ele>
        <time>2017-11-25T10:56:28Z</time>
      </trkpt>
      <trkpt lat="44.8162" lon="5.74464">
        <ele>758</ele>
        <time>2017-11-25T10:56:48Z</time>
      </trkpt>
      <trkpt lat="44.81603" lon="5.7445">
        <ele>757</ele>
        <time>2017-11-25T10:56:59Z</time>
      </trkpt>
      <trkpt lat="44.81506" lon="5.74394">
        <ele>753</ele>
        <time>2017-11-25T10:57:03Z</time>
      </trkpt>
      <trkpt lat="44.81383" lon="5.74319">
        <ele>749</ele>
        <time>2017-11-25T10:57:08Z</time>
      </trkpt>
      <trkpt lat="44.81336" lon="5.74288">
        <ele>748</ele>
        <time>2017-11-25T10:57:14Z</time>
      </trkpt>
      <trkpt lat="44.81312" lon="5.74267">
        <ele>748</ele>
        <time>2017-11-25T10:57:30Z</time>
      </trkpt>
      <trkpt lat="44.81297" lon="5.74244">
        <ele>746</ele>
        <time>2017-11-25T10:57:34Z</time>
      </trkpt>
      <trkpt lat="44.81288" lon="5.74212">
        <ele>746</ele>
        <time>2017-11-25T10:57:39Z</time>
      </trkpt>
      <trkpt lat="44.81286" lon="5.74193">
        <ele>745</ele>
        <time>2017-11-25T10:57:56Z</time>
      </trkpt>
      <trkpt lat="44.81287" lon="5.74174">
        <ele>745</ele>
        <time>2017-11-25T10:58:03Z</time>
      </trkpt>
      <trkpt lat="44.81292" lon="5.74156">
        <ele>743</ele>
        <time>2017-11-25T10:58:13Z</time>
      </trkpt>
      <trkpt lat="44.81303" lon="5.74132">
        <ele>742</ele>
        <time>2017-11-25T10:58:17Z</time>
      </trkpt>
      <trkpt lat="44.81313" lon="5.74119">
        <ele>741</ele>
        <time>2017-11-25T10:58:27Z</time>
      </trkpt>
      <trkpt lat="44.81324" lon="5.74109">
        <ele>740</ele>
        <time>2017-11-25T10:58:33Z</time>
      </trkpt>
      <trkpt lat="44.81442" lon="5.74034">
        <ele>731</ele>
        <time>2017-11-25T10:58:38Z</time>
      </trkpt>
      <trkpt lat="44.815" lon="5.73996">
        <ele>728</ele>
        <time>2017-11-25T10:58:51Z</time>
      </trkpt>
      <trkpt lat="44.8153" lon="5.73972">
        <ele>724</ele>
        <time>2017-11-25T10:58:56Z</time>
      </trkpt>
      <trkpt lat="44.81552" lon="5.73946">
        <ele>723</ele>
        <time>2017-11-25T10:58:59Z</time>
      </trkpt>
      <trkpt lat="44.81585" lon="5.73881">
        <ele>723</ele>
        <time>2017-11-25T10:59:07Z</time>
      </trkpt>
      <trkpt lat="44.81596" lon="5.73858">
        <ele>723</ele>
        <time>2017-11-25T10:59:20Z</time>
      </trkpt>
      <trkpt lat="44.81604" lon="5.73828">
        <ele>724</ele>
        <time>2017-11-25T10:59:27Z</time>
      </trkpt>
      <trkpt lat="44.81604" lon="5.73812">
        <ele>725</ele>
        <time>2017-11-25T10:59:29Z</time>
      </trkpt>
      <trkpt lat="44.81601" lon="5.73794">
        <ele>725</ele>
        <time>2017-11-25T10:59:46Z</time>
      </trkpt>
      <trkpt lat="44.81595" lon="5.73778">
        <ele>725</ele>
        <time>2017-11-25T11:00:04Z</time>
      </trkpt>
      <trkpt lat="44.81587" lon="5.73765">
        <ele>724</ele>
        <time>2017-11-25T11:00:22Z</time>
      </trkpt>
      <trkpt lat="44.81576" lon="5.73754">
        <ele>720</ele>
        <time>2017-11-25T11:00:38Z</time>
      </trkpt>
      <trkpt lat="44.81564" lon="5.73747">
        <ele>720</ele>
        <time>2017-11-25T11:00:47Z</time>
      </trkpt>
      <trkpt lat="44.81533" lon="5.73732">
        <ele>718</ele>
        <time>2017-11-25T11:00:58Z</time>
      </trkpt>
      <trkpt lat="44.81516" lon="5.73719">
        <ele>717</ele>
        <time>2017-11-25T11:01:14Z</time>
      </trkpt>
      <trkpt lat="44.815" lon="5.73699">
        <ele>713</ele>
        <time>2017-11-25T11:01:17Z</time>
      </trkpt>
      <trkpt lat="44.81476" lon="5.73656">
        <ele>713</ele>
        <time>2017-11-25T11:01:33Z</time>
      </trkpt>
      <trkpt lat="44.8146" lon="5.73618">
        <ele>712</ele>
        <time>2017-11-25T11:01:44Z</time>
      </trkpt>
      <trkpt lat="44.81452" lon="5.73587">
        <ele>711</ele>
        <time>2017-11-25T11:02:00Z</time>
      </trkpt>
      <trkpt lat="44.81448" lon="5.73554">
        <ele>711</ele>
        <time>2017-11-25T11:02:13Z</time>
      </trkpt>
      <trkpt lat="44.81448" lon="5.73485">
        <ele>710</ele>
        <time>2017-11-25T11:02:17Z</time>
      </trkpt>
      <trkpt lat="44.81449" lon="5.7343">
        <ele>710</ele>
        <time>2017-11-25T11:02:21Z</time>
      </trkpt>
      <trkpt lat="44.81461" lon="5.73354">
        <ele>709</ele>
        <time>2017-11-25T11:02:39Z</time>
      </trkpt>
      <trkpt lat="44.81463" lon="5.73333">
        <ele>709</ele>
        <time>2017-11-25T11:02:53Z</time>
      </trkpt>
      <trkpt lat="44.81459" lon="5.73288">
        <ele>709</ele>
        <time>2017-11-25T11:03:08Z</time>
      </trkpt>
      <trkpt lat="44.81454" lon="5.73254">
        <ele>708</ele>
        <time>2017-11-25T11:03:27Z</time>
      </trkpt>
      <trkpt lat="44.81451" lon="5.7322">
        <ele>707</ele>
        <time>2017-11-25T11:03:38Z</time>
      </trkpt>
      <trkpt lat="44.81455" lon="5.73176">
        <ele>706</ele>
        <time>2017-11-25T11:03:45Z</time>
      </trkpt>
      <trkpt lat="44.81459" lon="5.73154">
        <ele>705</ele>
        <time>2017-11-25T11:03:47Z</time>
      </trkpt>
      <trkpt lat="44.81462" lon="5.73133">
        <ele>705</ele>
        <time>2017-11-25T11:03:56Z</time>
      </trkpt>
      <trkpt lat="44.81462" lon="5.73111">
        <ele>705</ele>
        <time>2017-11-25T11:04:10Z</time>
      </trkpt>
      <trkpt lat="44.81452" lon="5.73057">
        <ele>704</ele>
        <time>2017-11-25T11:04:14Z</time>
      </trkpt>
      <trkpt lat="44.81447" lon="5.73014">
        <ele>704</ele>
        <time>2017-11-25T11:04:20Z</time>
      </trkpt>
      <trkpt lat="44.81448" lon="5.7298">
        <ele>702</ele>
        <time>2017-11-25T11:04:39Z</time>
      </trkpt>
      <trkpt lat="44.81453" lon="5.72948">
        <ele>701</ele>
        <time>2017-11-25T11:04:59Z</time>
      </trkpt>
      <trkpt lat="44.8146" lon="5.72901">
        <ele>699</ele>
        <time>2017-11-25T11:05:11Z</time>
      </trkpt>
      <trkpt lat="44.81467" lon="5.72849">
        <ele>698</ele>
        <time>2017-11-25T11:05:24Z</time>
      </trkpt>
      <trkpt lat="44.81483" lon="5.72774">
        <ele>695</ele>
        <time>2017-11-25T11:05:41Z</time>
      </trkpt>
      <trkpt lat="44.81514" lon="5.72636">
        <ele>690</ele>
        <time>2017-11-25T11:05:51Z</time>
      </trkpt>
      <trkpt lat="44.81526" lon="5.72579">
        <ele>689</ele>
        <time>2017-11-25T11:05:54Z</time>
      </trkpt>
      <trkpt lat="44.81527" lon="5.7256">
        <ele>689</ele>
        <time>2017-11-25T11:05:58Z</time>
      </trkpt>
      <trkpt lat="44.81526" lon="5.72539">
        <ele>689</ele>
        <time>2017-11-25T11:06:11Z</time>
      </trkpt>
      <trkpt lat="44.81521" lon="5.72511">
        <ele>689</ele>
        <time>2017-11-25T11:06:26Z</time>
      </trkpt>
      <trkpt lat="44.81491" lon="5.72385">
        <ele>686</ele>
        <time>2017-11-25T11:06:34Z</time>
      </trkpt>
      <trkpt lat="44.81459" lon="5.72258">
        <ele>684</ele>
        <time>2017-11-25T11:06:39Z</time>
      </trkpt>
      <trkpt lat="44.81449" lon="5.72205">
        <ele>682</ele>
        <time>2017-11-25T11:06:44Z</time>
      </trkpt>
      <trkpt lat="44.81449" lon="5.72178">
        <ele>681</ele>
        <time>2017-11-25T11:06:52Z</time>
      </trkpt>
      <trkpt lat="44.81452" lon="5.72143">
        <ele>680</ele>
        <time>2017-11-25T11:06:58Z</time>
      </trkpt>
      <trkpt lat="44.81464" lon="5.7208">
        <ele>682</ele>
        <time>2017-11-25T11:07:18Z</time>
      </trkpt>
      <trkpt lat="44.81465" lon="5.72026">
        <ele>683</ele>
        <time>2017-11-25T11:07:31Z</time>
      </trkpt>
      <trkpt lat="44.81457" lon="5.71977">
        <ele>687</ele>
        <time>2017-11-25T11:07:38Z</time>
      </trkpt>
      <trkpt lat="44.8144" lon="5.7192">
        <ele>684</ele>
        <time>2017-11-25T11:07:52Z</time>
      </trkpt>
      <trkpt lat="44.81418" lon="5.71849">
        <ele>690</ele>
        <time>2017-11-25T11:07:55Z</time>
      </trkpt>
      <trkpt lat="44.814" lon="5.71809">
        <ele>686</ele>
        <time>2017-11-25T11:08:14Z</time>
      </trkpt>
      <trkpt lat="44.81374" lon="5.71776">
        <ele>686</ele>
        <time>2017-11-25T11:08:19Z</time>
      </trkpt>
      <trkpt lat="44.81362" lon="5.71762">
        <ele>684</ele>
        <time>2017-11-25T11:08:25Z</time>
      </trkpt>
      <trkpt lat="44.81351" lon="5.71745">
        <ele>686</ele>
        <time>2017-11-25T11:08:31Z</time>
      </trkpt>
      <trkpt lat="44.8133" lon="5.71708">
        <ele>679</ele>
        <time>2017-11-25T11:08:44Z</time>
      </trkpt>
      <trkpt lat="44.81301" lon="5.71631">
        <ele>683</ele>
        <time>2017-11-25T11:09:01Z</time>
      </trkpt>
      <trkpt lat="44.81264" lon="5.71532">
        <ele>680</ele>
        <time>2017-11-25T11:09:13Z</time>
      </trkpt>
      <trkpt lat="44.81248" lon="5.71486">
        <ele>672</ele>
        <time>2017-11-25T11:09:33Z</time>
      </trkpt>
      <trkpt lat="44.81233" lon="5.71421">
        <ele>673</ele>
        <time>2017-11-25T11:09:44Z</time>
      </trkpt>
      <trkpt lat="44.81227" lon="5.71381">
        <ele>675</ele>
        <time>2017-11-25T11:09:57Z</time>
      </trkpt>
      <trkpt lat="44.81225" lon="5.71359">
        <ele>675</ele>
        <time>2017-11-25T11:10:12Z</time>
      </trkpt>
      <trkpt lat="44.81226" lon="5.71339">
        <ele>675</ele>
        <time>2017-11-25T11:10:18Z</time>
      </trkpt>
      <trkpt lat="44.81231" lon="5.71296">
        <ele>677</ele>
        <time>2017-11-25T11:10:32Z</time>
      </trkpt>
      <trkpt lat="44.81223" lon="5.71208">
        <ele>678</ele>
        <time>2017-11-25T11:10:45Z</time>
      </trkpt>
      <trkpt lat="44.81224" lon="5.71166">
        <ele>678</ele>
        <time>2017-11-25T11:11:02Z</time>
      </trkpt>
      <trkpt lat="44.81229" lon="5.71142">
        <ele>678</ele>
        <time>2017-11-25T11:11:09Z</time>
      </trkpt>
      <trkpt lat="44.81238" lon="5.71085">
        <ele>679</ele>
        <time>2017-11-25T11:11:19Z</time>
      </trkpt>
      <trkpt lat="44.81235" lon="5.71041">
        <ele>679</ele>
        <time>2017-11-25T11:11:28Z</time>
      </trkpt>
      <trkpt lat="44.81231" lon="5.71023">
        <ele>679</ele>
        <time>2017-11-25T11:11:47Z</time>
      </trkpt>
      <trkpt lat="44.81224" lon="5.7098">
        <ele>677</ele>
        <time>2017-11-25T11:11:51Z</time>
      </trkpt>
      <trkpt lat="44.8122" lon="5.70934">
        <ele>676</ele>
        <time>2017-11-25T11:12:09Z</time>
      </trkpt>
      <trkpt lat="44.81215" lon="5.70914">
        <ele>676</ele>
        <time>2017-11-25T11:12:11Z</time>
      </trkpt>
      <trkpt lat="44.81202" lon="5.70895">
        <ele>673</ele>
        <time>2017-11-25T11:12:31Z</time>
      </trkpt>
      <trkpt lat="44.8116" lon="5.70872">
        <ele>660</ele>
        <time>2017-11-25T11:12:33Z</time>
      </trkpt>
      <trkpt lat="44.81154" lon="5.70865">
        <ele>659</ele>
        <time>2017-11-25T11:12:49Z</time>
      </trkpt>
      <trkpt lat="44.81149" lon="5.70853">
        <ele>659</ele>
        <time>2017-11-25T11:13:07Z</time>
      </trkpt>
      <trkpt lat="44.81148" lon="5.70838">
        <ele>659</ele>
        <time>2017-11-25T11:13:16Z</time>
      </trkpt>
      <trkpt lat="44.81151" lon="5.70797">
        <ele>657</ele>
        <time>2017-11-25T11:13:20Z</time>
      </trkpt>
      <trkpt lat="44.81158" lon="5.70751">
        <ele>656</ele>
        <time>2017-11-25T11:13:35Z</time>
      </trkpt>
      <trkpt lat="44.81156" lon="5.70726">
        <ele>655</ele>
        <time>2017-11-25T11:13:44Z</time>
      </trkpt>
      <trkpt lat="44.81136" lon="5.70676">
        <ele>655</ele>
        <time>2017-11-25T11:13:55Z</time>
      </trkpt>
      <trkpt lat="44.81094" lon="5.70596">
        <ele>647</ele>
        <time>2017-11-25T11:13:59Z</time>
      </trkpt>
      <trkpt lat="44.80981" lon="5.70383">
        <ele>642</ele>
        <time>2017-11-25T11:14:19Z</time>
      </trkpt>
      <trkpt lat="44.80949" lon="5.7032">
        <ele>644</ele>
        <time>2017-11-25T11:14:32Z</time>
      </trkpt>
      <trkpt lat="44.80935" lon="5.70304">
        <ele>644</ele>
        <time>2017-11-25T11:14:38Z</time>
      </trkpt>
      <trkpt lat="44.80911" lon="5.70291">
        <ele>639</ele>
        <time>2017-11-25T11:14:56Z</time>
      </trkpt>
      <trkpt lat="44.80894" lon="5.70287">
        <ele>639</ele>
        <time>2017-11-25T11:15:16Z</time>
      </trkpt>
      <trkpt lat="44.80873" lon="5.70276">
        <ele>639</ele>
        <time>2017-11-25T11:15:35Z</time>
      </trkpt>
      <trkpt lat="44.80862" lon="5.70259">
        <ele>637</ele>
        <time>2017-11-25T11:15:51Z</time>
      </trkpt>
      <trkpt lat="44.80855" lon="5.70238">
        <ele>636</ele>
        <time>2017-11-25T11:16:07Z</time>
      </trkpt>
      <trkpt lat="44.8085" lon="5.70202">
        <ele>637</ele>
        <time>2017-11-25T11:16:15Z</time>
      </trkpt>
      <trkpt lat="44.80851" lon="5.70162">
        <ele>635</ele>
        <time>2017-11-25T11:16:32Z</time>
      </trkpt>
      <trkpt lat="44.8086" lon="5.70081">
        <ele>635</ele>
        <time>2017-11-25T11:16:47Z</time>
      </trkpt>
      <trkpt lat="44.80839" lon="5.70077">
        <ele>632</ele>
        <time>2017-11-25T11:16:58Z</time>
      </trkpt>
      <trkpt lat="44.80821" lon="5.70073">
        <ele>635</ele>
        <time>2017-11-25T11:17:02Z</time>
      </trkpt>
      <trkpt lat="44.80806" lon="5.70057">
        <ele>639</ele>
        <time>2017-11-25T11:17:22Z</time>
      </trkpt>
      <trkpt lat="44.80788" lon="5.7003">
        <ele>641</ele>
        <time>2017-11-25T11:17:32Z</time>
      </trkpt>
      <trkpt lat="44.80774" lon="5.69998">
        <ele>644</ele>
        <time>2017-11-25T11:17:41Z</time>
      </trkpt>
      <trkpt lat="44.80764" lon="5.69935">
        <ele>645</ele>
        <time>2017-11-25T11:17:50Z</time>
      </trkpt>
      <trkpt lat="44.8076" lon="5.69877">
        <ele>644</ele>
        <time>2017-11-25T11:18:10Z</time>
      </trkpt>
      <trkpt lat="44.80763" lon="5.69838">
        <ele>648</ele>
        <time>2017-11-25T11:18:17Z</time>
      </trkpt>
      <trkpt lat="44.80771" lon="5.69792">
        <ele>644</ele>
        <time>2017-11-25T11:18:21Z</time>
      </trkpt>
      <trkpt lat="44.80772" lon="5.69758">
        <ele>646</ele>
        <time>2017-11-25T11:18:37Z</time>
      </trkpt>
      <trkpt lat="44.80766" lon="5.69737">
        <ele>646</ele>
        <time>2017-11-25T11:18:54Z</time>
      </trkpt>
      <trkpt lat="44.80759" lon="5.69729">
        <ele>646</ele>
        <time>2017-11-25T11:19:12Z</time>
      </trkpt>
      <trkpt lat="44.80737" lon="5.69721">
        <ele>655</ele>
        <time>2017-11-25T11:19:24Z</time>
      </trkpt>
      <trkpt lat="44.80727" lon="5.69717">
        <ele>655</ele>
        <time>2017-11-25T11:19:27Z</time>
      </trkpt>
      <trkpt lat="44.80718" lon="5.6971">
        <ele>656</ele>
        <time>2017-11-25T11:19:30Z</time>
      </trkpt>
      <trkpt lat="44.80708" lon="5.69703">
        <ele>656</ele>
        <time>2017-11-25T11:19:46Z</time>
      </trkpt>
      <trkpt lat="44.80692" lon="5.69696">
        <ele>657</ele>
        <time>2017-11-25T11:20:06Z</time>
      </trkpt>
      <trkpt lat="44.80642" lon="5.69678">
        <ele>665</ele>
        <time>2017-11-25T11:20:24Z</time>
      </trkpt>
      <trkpt lat="44.80613" lon="5.69661">
        <ele>661</ele>
        <time>2017-11-25T11:20:38Z</time>
      </trkpt>
      <trkpt lat="44.80596" lon="5.69656">
        <ele>663</ele>
        <time>2017-11-25T11:20:50Z</time>
      </trkpt>
      <trkpt lat="44.80576" lon="5.69659">
        <ele>665</ele>
        <time>2017-11-25T11:20:57Z</time>
      </trkpt>
      <trkpt lat="44.80555" lon="5.69658">
        <ele>664</ele>
        <time>2017-11-25T11:21:15Z</time>
      </trkpt>
      <trkpt lat="44.80542" lon="5.69643">
        <ele>664</ele>
        <time>2017-11-25T11:21:34Z</time>
      </trkpt>
      <trkpt lat="44.80529" lon="5.69622">
        <ele>663</ele>
        <time>2017-11-25T11:21:49Z</time>
      </trkpt>
      <trkpt lat="44.80516" lon="5.69615">
        <ele>662</ele>
        <time>2017-11-25T11:21:51Z</time>
      </trkpt>
      <trkpt lat="44.80505" lon="5.69617">
        <ele>662</ele>
        <time>2017-11-25T11:22:02Z</time>
      </trkpt>
      <trkpt lat="44.80496" lon="5.69622">
        <ele>666</ele>
        <time>2017-11-25T11:22:11Z</time>
      </trkpt>
      <trkpt lat="44.80484" lon="5.69637">
        <ele>667</ele>
        <time>2017-11-25T11:22:19Z</time>
      </trkpt>
      <trkpt lat="44.80454" lon="5.69675">
        <ele>673</ele>
        <time>2017-11-25T11:22:27Z</time>
      </trkpt>
      <trkpt lat="44.80439" lon="5.69687">
        <ele>673</ele>
        <time>2017-11-25T11:22:33Z</time>
      </trkpt>
      <trkpt lat="44.80428" lon="5.69691">
        <ele>673</ele>
        <time>2017-11-25T11:22:50Z</time>
      </trkpt>
      <trkpt lat="44.80422" lon="5.69689">
        <ele>672</ele>
        <time>2017-11-25T11:23:10Z</time>
      </trkpt>
      <trkpt lat="44.80415" lon="5.69681">
        <ele>671</ele>
        <time>2017-11-25T11:23:18Z</time>
      </trkpt>
      <trkpt lat="44.80404" lon="5.69655">
        <ele>671</ele>
        <time>2017-11-25T11:23:22Z</time>
      </trkpt>
      <trkpt lat="44.80397" lon="5.69635">
        <ele>672</ele>
        <time>2017-11-25T11:23:41Z</time>
      </trkpt>
      <trkpt lat="44.80395" lon="5.69608">
        <ele>673</ele>
        <time>2017-11-25T11:23:56Z</time>
      </trkpt>
      <trkpt lat="44.80396" lon="5.69598">
        <ele>673</ele>
        <time>2017-11-25T11:24:02Z</time>
      </trkpt>
      <trkpt lat="44.80403" lon="5.6958">
        <ele>677</ele>
        <time>2017-11-25T11:24:19Z</time>
      </trkpt>
      <trkpt lat="44.8042" lon="5.69553">
        <ele>675</ele>
        <time>2017-11-25T11:24:33Z</time>
      </trkpt>
      <trkpt lat="44.80421" lon="5.69537">
        <ele>678</ele>
        <time>2017-11-25T11:24:52Z</time>
      </trkpt>
      <trkpt lat="44.80417" lon="5.6953">
        <ele>679</ele>
        <time>2017-11-25T11:25:01Z</time>
      </trkpt>
      <trkpt lat="44.80413" lon="5.69528">
        <ele>684</ele>
        <time>2017-11-25T11:25:11Z</time>
      </trkpt>
      <trkpt lat="44.80409" lon="5.69527">
        <ele>684</ele>
        <time>2017-11-25T11:25:22Z</time>
      </trkpt>
      <trkpt lat="44.80399" lon="5.69533">
        <ele>684</ele>
        <time>2017-11-25T11:25:34Z</time>
      </trkpt>
      <trkpt lat="44.80374" lon="5.69549">
        <ele>682</ele>
        <time>2017-11-25T11:25:39Z</time>
      </trkpt>
      <trkpt lat="44.80363" lon="5.69553">
        <ele>682</ele>
        <time>2017-11-25T11:25:50Z</time>
      </trkpt>
      <trkpt lat="44.80352" lon="5.69554">
        <ele>682</ele>
        <time>2017-11-25T11:25:55Z</time>
      </trkpt>
      <trkpt lat="44.80338" lon="5.69552">
        <ele>683</ele>
        <time>2017-11-25T11:26:07Z</time>
      </trkpt>
      <trkpt lat="44.80322" lon="5.69546">
        <ele>686</ele>
        <time>2017-11-25T11:26:15Z</time>
      </trkpt>
      <trkpt lat="44.80292" lon="5.69534">
        <ele>687</ele>
        <time>2017-11-25T11:26:25Z</time>
      </trkpt>
      <trkpt lat="44.80273" lon="5.69531">
        <ele>688</ele>
        <time>2017-11-25T11:26:40Z</time>
      </trkpt>
      <trkpt lat="44.80254" lon="5.69532">
        <ele>688</ele>
        <time>2017-11-25T11:26:57Z</time>
      </trkpt>
      <trkpt lat="44.80209" lon="5.69536">
        <ele>692</ele>
        <time>2017-11-25T11:27:10Z</time>
      </trkpt>
      <trkpt lat="44.80092" lon="5.69552">
        <ele>700</ele>
        <time>2017-11-25T11:27:30Z</time>
      </trkpt>
      <trkpt lat="44.79967" lon="5.69571">
        <ele>712</ele>
        <time>2017-11-25T11:27:49Z</time>
      </trkpt>
      <trkpt lat="44.79898" lon="5.69578">
        <ele>717</ele>
        <time>2017-11-25T11:28:08Z</time>
      </trkpt>
      <trkpt lat="44.7985" lon="5.69579">
        <ele>719</ele>
        <time>2017-11-25T11:28:13Z</time>
      </trkpt>
      <trkpt lat="44.79828" lon="5.69575">
        <ele>721</ele>
        <time>2017-11-25T11:28:24Z</time>
      </trkpt>
      <trkpt lat="44.79802" lon="5.69564">
        <ele>722</ele>
        <time>2017-11-25T11:28:43Z</time>
      </trkpt>
      <trkpt lat="44.79739" lon="5.69525">
        <ele>725</ele>
        <time>2017-11-25T11:28:51Z</time>
      </trkpt>
      <trkpt lat="44.79704" lon="5.69508">
        <ele>726</ele>
        <time>2017-11-25T11:29:05Z</time>
      </trkpt>
      <trkpt lat="44.79645" lon="5.69487">
        <ele>732</ele>
        <time>2017-11-25T11:29:22Z</time>
      </trkpt>
      <trkpt lat="44.7959" lon="5.69464">
        <ele>733</ele>
        <time>2017-11-25T11:29:34Z</time>
      </trkpt>
      <trkpt lat="44.79568" lon="5.69451">
        <ele>734</ele>
        <time>2017-11-25T11:29:38Z</time>
      </trkpt>
      <trkpt lat="44.79485" lon="5.69389">
        <ele>741</ele>
        <time>2017-11-25T11:29:50Z</time>
      </trkpt>
      <trkpt lat="44.79455" lon="5.69377">
        <ele>742</ele>
        <time>2017-11-25T11:30:03Z</time>
      </trkpt>
      <trkpt lat="44.79376" lon="5.69353">
        <ele>742</ele>
        <time>2017-11-25T11:30:11Z</time>
      </trkpt>
      <trkpt lat="44.79343" lon="5.69343">
        <ele>743</ele>
        <time>2017-11-25T11:30:28Z</time>
      </trkpt>
      <trkpt lat="44.79335" lon="5.69343">
        <ele>743</ele>
        <time>2017-11-25T11:30:31Z</time>
      </trkpt>
      <trkpt lat="44.79324" lon="5.69347">
        <ele>744</ele>
        <time>2017-11-25T11:30:36Z</time>
      </trkpt>
      <trkpt lat="44.79292" lon="5.69358">
        <ele>744</ele>
        <time>2017-11-25T11:30:47Z</time>
      </trkpt>
      <trkpt lat="44.7927" lon="5.69366">
        <ele>744</ele>
        <time>2017-11-25T11:31:04Z</time>
      </trkpt>
      <trkpt lat="44.79196" lon="5.69391">
        <ele>748</ele>
        <time>2017-11-25T11:31:22Z</time>
      </trkpt>
      <trkpt lat="44.79136" lon="5.69414">
        <ele>752</ele>
        <time>2017-11-25T11:31:30Z</time>
      </trkpt>
      <trkpt lat="44.79109" lon="5.69426">
        <ele>754</ele>
        <time>2017-11-25T11:31:32Z</time>
      </trkpt>
      <trkpt lat="44.7909" lon="5.69439">
        <ele>755</ele>
        <time>2017-11-25T11:31:37Z</time>
      </trkpt>
      <trkpt lat="44.79071" lon="5.69451">
        <ele>756</ele>
        <time>2017-11-25T11:31:45Z</time>
      </trkpt>
      <trkpt lat="44.79056" lon="5.69466">
        <ele>756</ele>
        <time>2017-11-25T11:31:53Z</time>
      </trkpt>
      <trkpt lat="44.7903" lon="5.69483">
        <ele>756</ele>
        <time>2017-11-25T11:32:02Z</time>
      </trkpt>
      <trkpt lat="44.79009" lon="5.69492">
        <ele>756</ele>
        <time>2017-11-25T11:32:22Z</time>
      </trkpt>
      <trkpt lat="44.7896" lon="5.69497">
        <ele>758</ele>
        <time>2017-11-25T11:32:33Z</time>
      </trkpt>
      <trkpt lat="44.78912" lon="5.69505">
        <ele>763</ele>
        <time>2017-11-25T11:32:50Z</time>
      </trkpt>
      <trkpt lat="44.78889" lon="5.69504">
        <ele>763</ele>
        <time>2017-11-25T11:33:01Z</time>
      </trkpt>
      <trkpt lat="44.78875" lon="5.69507">
        <ele>764</ele>
        <time>2017-11-25T11:33:19Z</time>
      </trkpt>
      <trkpt lat="44.78857" lon="5.69522">
        <ele>764</ele>
        <time>2017-11-25T11:33:32Z</time>
      </trkpt>
      <trkpt lat="44.78848" lon="5.69536">
        <ele>764</ele>
        <time>2017-11-25T11:33:38Z</time>
      </trkpt>
      <trkpt lat="44.78839" lon="5.69544">
        <ele>764</ele>
        <time>2017-11-25T11:33:55Z</time>
      </trkpt>
      <trkpt lat="44.78814" lon="5.69554">
        <ele>767</ele>
        <time>2017-11-25T11:34:14Z</time>
      </trkpt>
      <trkpt lat="44.78793" lon="5.69561">
        <ele>767</ele>
        <time>2017-11-25T11:34:21Z</time>
      </trkpt>
      <trkpt lat="44.78717" lon="5.69581">
        <ele>770</ele>
        <time>2017-11-25T11:34:31Z</time>
      </trkpt>
      <trkpt lat="44.78595" lon="5.6959">
        <ele>772</ele>
        <time>2017-11-25T11:34:48Z</time>
      </trkpt>
      <trkpt lat="44.78521" lon="5.69599">
        <ele>772</ele>
        <time>2017-11-25T11:35:08Z</time>
      </trkpt>
      <trkpt lat="44.78475" lon="5.69592">
        <ele>773</ele>
        <time>2017-11-25T11:35:14Z</time>
      </trkpt>
      <trkpt lat="44.78442" lon="5.69583">
        <ele>770</ele>
        <time>2017-11-25T11:35:19Z</time>
      </trkpt>
      <trkpt lat="44.78405" lon="5.69577">
        <ele>770</ele>
        <time>2017-11-25T11:35:39Z</time>
      </trkpt>
      <trkpt lat="44.78366" lon="5.69573">
        <ele>767</ele>
        <time>2017-11-25T11:35:46Z</time>
      </trkpt>
      <trkpt lat="44.78331" lon="5.69573">
        <ele>767</ele>
        <time>2017-11-25T11:36:02Z</time>
      </trkpt>
      <trkpt lat="44.78297" lon="5.69573">
        <ele>765</ele>
        <time>2017-11-25T11:36:22Z</time>
      </trkpt>
      <trkpt lat="44.78236" lon="5.69569">
        <ele>765</ele>
        <time>2017-11-25T11:36:40Z</time>
      </trkpt>
      <trkpt lat="44.78128" lon="5.69552">
        <ele>765</ele>
        <time>2017-11-25T11:36:55Z</time>
      </trkpt>
      <trkpt lat="44.781" lon="5.69551">
        <ele>765</ele>
        <time>2017-11-25T11:37:07Z</time>
      </trkpt>
      <trkpt lat="44.78055" lon="5.69563">
        <ele>758</ele>
        <time>2017-11-25T11:37:12Z</time>
      </trkpt>
      <trkpt lat="44.78012" lon="5.69579">
        <ele>754</ele>
        <time>2017-11-25T11:37:32Z</time>
      </trkpt>
      <trkpt lat="44.77999" lon="5.69586">
        <ele>752</ele>
        <time>2017-11-25T11:37:51Z</time>
      </trkpt>
      <trkpt lat="44.77982" lon="5.69601">
        <ele>746</ele>
        <time>2017-11-25T11:38:10Z</time>
      </trkpt>
      <trkpt lat="44.77966" lon="5.69623">
        <ele>744</ele>
        <time>2017-11-25T11:38:18Z</time>
      </trkpt>
      <trkpt lat="44.77951" lon="5.69652">
        <ele>742</ele>
        <time>2017-11-25T11:38:24Z</time>
      </trkpt>
      <trkpt lat="44.77931" lon="5.69709">
        <ele>749</ele>
        <time>2017-11-25T11:38:35Z</time>
      </trkpt>
      <trkpt lat="44.77901" lon="5.69781">
        <ele>739</ele>
        <time>2017-11-25T11:38:46Z</time>
      </trkpt>
      <trkpt lat="44.77878" lon="5.69828">
        <ele>738</ele>
        <time>2017-11-25T11:38:58Z</time>
      </trkpt>
      <trkpt lat="44.77862" lon="5.69868">
        <ele>743</ele>
        <time>2017-11-25T11:39:17Z</time>
      </trkpt>
      <trkpt lat="44.77847" lon="5.69918">
        <ele>743</ele>
        <time>2017-11-25T11:39:34Z</time>
      </trkpt>
      <trkpt lat="44.77836" lon="5.69962">
        <ele>748</ele>
        <time>2017-11-25T11:39:49Z</time>
      </trkpt>
      <trkpt lat="44.77829" lon="5.70011">
        <ele>737</ele>
        <time>2017-11-25T11:40:09Z</time>
      </trkpt>
      <trkpt lat="44.7782" lon="5.70052">
        <ele>735</ele>
        <time>2017-11-25T11:40:22Z</time>
      </trkpt>
      <trkpt lat="44.77796" lon="5.70124">
        <ele>738</ele>
        <time>2017-11-25T11:40:24Z</time>
      </trkpt>
      <trkpt lat="44.77786" lon="5.70162">
        <ele>738</ele>
        <time>2017-11-25T11:40:38Z</time>
      </trkpt>
      <trkpt lat="44.77779" lon="5.70188">
        <ele>743</ele>
        <time>2017-11-25T11:40:49Z</time>
      </trkpt>
      <trkpt lat="44.77771" lon="5.7021">
        <ele>743</ele>
        <time>2017-11-25T11:40:51Z</time>
      </trkpt>
      <trkpt lat="44.77751" lon="5.70244">
        <ele>740</ele>
        <time>2017-11-25T11:41:03Z</time>
      </trkpt>
      <trkpt lat="44.77723" lon="5.70281">
        <ele>734</ele>
        <time>2017-11-25T11:41:22Z</time>
      </trkpt>
      <trkpt lat="44.77711" lon="5.70293">
        <ele>733</ele>
        <time>2017-11-25T11:41:31Z</time>
      </trkpt>
      <trkpt lat="44.77692" lon="5.70307">
        <ele>732</ele>
        <time>2017-11-25T11:41:39Z</time>
      </trkpt>
      <trkpt lat="44.7761" lon="5.70365">
        <ele>724</ele>
        <time>2017-11-25T11:41:41Z</time>
      </trkpt>
      <trkpt lat="44.77575" lon="5.70391">
        <ele>719</ele>
        <time>2017-11-25T11:41:57Z</time>
      </trkpt>
      <trkpt lat="44.77559" lon="5.7041">
        <ele>719</ele>
        <time>2017-11-25T11:42:08Z</time>
      </trkpt>
      <trkpt lat="44.77541" lon="5.70439">
        <ele>723</ele>
        <time>2017-11-25T11:42:17Z</time>
      </trkpt>
      <trkpt lat="44.77484" lon="5.70543">
        <ele>726</ele>
        <time>2017-11-25T11:42:37Z</time>
      </trkpt>
      <trkpt lat="44.77463" lon="5.70584">
        <ele>732</ele>
        <time>2017-11-25T11:42:42Z</time>
      </trkpt>
      <trkpt lat="44.77443" lon="5.70623">
        <ele>732</ele>
        <time>2017-11-25T11:42:46Z</time>
      </trkpt>
      <trkpt lat="44.77418" lon="5.70684">
        <ele>737</ele>
        <time>2017-11-25T11:42:48Z</time>
      </trkpt>
      <trkpt lat="44.77393" lon="5.70742">
        <ele>733</ele>
        <time>2017-11-25T11:42:59Z</time>
      </trkpt>
      <trkpt lat="44.77378" lon="5.70766">
        <ele>737</ele>
        <time>2017-11-25T11:43:10Z</time>
      </trkpt>
      <trkpt lat="44.7736" lon="5.7079">
        <ele>735</ele>
        <time>2017-11-25T11:43:12Z</time>
      </trkpt>
      <trkpt lat="44.77344" lon="5.70813">
        <ele>733</ele>
        <time>2017-11-25T11:43:25Z</time>
      </trkpt>
      <trkpt lat="44.77339" lon="5.70826">
        <ele>730</ele>
        <time>2017-11-25T11:43:35Z</time>
      </trkpt>
      <trkpt lat="44.77335" lon="5.7084">
        <ele>731</ele>
        <time>2017-11-25T11:43:55Z</time>
      </trkpt>
      <trkpt lat="44.77334" lon="5.70872">
        <ele>738</ele>
        <time>2017-11-25T11:44:06Z</time>
      </trkpt>
      <trkpt lat="44.77335" lon="5.70904">
        <ele>734</ele>
        <time>2017-11-25T11:44:14Z</time>
      </trkpt>
      <trkpt lat="44.77327" lon="5.70936">
        <ele>729</ele>
        <time>2017-11-25T11:44:18Z</time>
      </trkpt>
      <trkpt lat="44.77309" lon="5.7097">
        <ele>729</ele>
        <time>2017-11-25T11:44:37Z</time>
      </trkpt>
      <trkpt lat="44.77303" lon="5.71002">
        <ele>734</ele>
        <time>2017-11-25T11:44:57Z</time>
      </trkpt>
      <trkpt lat="44.77301" lon="5.71043">
        <ele>736</ele>
        <time>2017-11-25T11:44:59Z</time>
      </trkpt>
      <trkpt lat="44.77298" lon="5.71062">
        <ele>736</ele>
        <time>2017-11-25T11:45:06Z</time>
      </trkpt>
      <trkpt lat="44.77293" lon="5.71077">
        <ele>736</ele>
        <time>2017-11-25T11:45:12Z</time>
      </trkpt>
      <trkpt lat="44.77275" lon="5.71109">
        <ele>741</ele>
        <time>2017-11-25T11:45:22Z</time>
      </trkpt>
      <trkpt lat="44.77251" lon="5.71149">
        <ele>741</ele>
        <time>2017-11-25T11:45:31Z</time>
      </trkpt>
      <trkpt lat="44.77232" lon="5.71175">
        <ele>739</ele>
        <time>2017-11-25T11:45:38Z</time>
      </trkpt>
      <trkpt lat="44.77223" lon="5.71164">
        <ele>735</ele>
        <time>2017-11-25T11:45:54Z</time>
      </trkpt>
      <trkpt lat="44.77217" lon="5.71155">
        <ele>734</ele>
        <time>2017-11-25T11:46:14Z</time>
      </trkpt>
      <trkpt lat="44.77206" lon="5.71137">
        <ele>733</ele>
        <time>2017-11-25T11:46:33Z</time>
      </trkpt>
      <trkpt lat="44.77194" lon="5.71119">
        <ele>733</ele>
        <time>2017-11-25T11:46:35Z</time>
      </trkpt>
      <trkpt lat="44.77185" lon="5.7111">
        <ele>733</ele>
        <time>2017-11-25T11:46:47Z</time>
      </trkpt>
      <trkpt lat="44.77173" lon="5.71105">
        <ele>733</ele>
        <time>2017-11-25T11:46:55Z</time>
      </trkpt>
      <trkpt lat="44.77158" lon="5.71105">
        <ele>736</ele>
        <time>2017-11-25T11:47:08Z</time>
      </trkpt>
      <trkpt lat="44.77142" lon="5.71113">
        <ele>736</ele>
        <time>2017-11-25T11:47:25Z</time>
      </trkpt>
      <trkpt lat="44.77115" lon="5.71131">
        <ele>737</ele>
        <time>2017-11-25T11:47:42Z</time>
      </trkpt>
      <trkpt lat="44.77056" lon="5.71173">
        <ele>742</ele>
        <time>2017-11-25T11:47:50Z</time>
      </trkpt>
      <trkpt lat="44.77044" lon="5.71178">
        <ele>743</ele>
        <time>2017-11-25T11:48:07Z</time>
      </trkpt>
      <trkpt lat="44.77032" lon="5.7118">
        <ele>744</ele>
        <time>2017-11-25T11:48:15Z</time>
      </trkpt>
      <trkpt lat="44.77021" lon="5.71177">
        <ele>746</ele>
        <time>2017-11-25T11:48:34Z</time>
      </trkpt>
      <trkpt lat="44.77015" lon="5.71175">
        <ele>747</ele>
        <time>2017-11-25T11:48:37Z</time>
      </trkpt>
      <trkpt lat="44.77011" lon="5.7118">
        <ele>747</ele>
        <time>2017-11-25T11:48:52Z</time>
      </trkpt>
      <trkpt lat="44.76997" lon="5.71199">
        <ele>757</ele>
        <time>2017-11-25T11:49:05Z</time>
      </trkpt>
      <trkpt lat="44.76974" lon="5.71236">
        <ele>757</ele>
        <time>2017-11-25T11:49:13Z</time>
      </trkpt>
      <trkpt lat="44.76921" lon="5.71315">
        <ele>755</ele>
        <time>2017-11-25T11:49:26Z</time>
      </trkpt>
      <trkpt lat="44.7688" lon="5.71371">
        <ele>761</ele>
        <time>2017-11-25T11:49:40Z</time>
      </trkpt>
      <trkpt lat="44.76856" lon="5.714">
        <ele>762</ele>
        <time>2017-11-25T11:49:46Z</time>
      </trkpt>
      <trkpt lat="44.76813" lon="5.71448">
        <ele>770</ele>
        <time>2017-11-25T11:49:48Z</time>
      </trkpt>
      <trkpt lat="44.76801" lon="5.71467">
        <ele>770</ele>
        <time>2017-11-25T11:50:08Z</time>
      </trkpt>
      <trkpt lat="44.76791" lon="5.7149">
        <ele>771</ele>
        <time>2017-11-25T11:50:18Z</time>
      </trkpt>
      <trkpt lat="44.7677" lon="5.71568">
        <ele>767</ele>
        <time>2017-11-25T11:50:24Z</time>
      </trkpt>
      <trkpt lat="44.76755" lon="5.71619">
        <ele>764</ele>
        <time>2017-11-25T11:50:41Z</time>
      </trkpt>
      <trkpt lat="44.76729" lon="5.71676">
        <ele>772</ele>
        <time>2017-11-25T11:51:01Z</time>
      </trkpt>
      <trkpt lat="44.76624" lon="5.71893">
        <ele>776</ele>
        <time>2017-11-25T11:51:16Z</time>
      </trkpt>
      <trkpt lat="44.76567" lon="5.72002">
        <ele>777</ele>
        <time>2017-11-25T11:51:34Z</time>
      </trkpt>
      <trkpt lat="44.7651" lon="5.72097">
        <ele>778</ele>
        <time>2017-11-25T11:51:45Z</time>
      </trkpt>
      <trkpt lat="44.76485" lon="5.72142">
        <ele>787</ele>
        <time>2017-11-25T11:51:54Z</time>
      </trkpt>
      <trkpt lat="44.76449" lon="5.72239">
        <ele>782</ele>
        <time>2017-11-25T11:52:08Z</time>
      </trkpt>
      <trkpt lat="44.76428" lon="5.72278">
        <ele>778</ele>
        <time>2017-11-25T11:52:12Z</time>
      </trkpt>
      <trkpt lat="44.76415" lon="5.72296">
        <ele>790</ele>
        <time>2017-11-25T11:52:31Z</time>
      </trkpt>
      <trkpt lat="44.76371" lon="5.72352">
        <ele>783</ele>
        <time>2017-11-25T11:52:40Z</time>
      </trkpt>
      <trkpt lat="44.76281" lon="5.72468">
        <ele>784</ele>
        <time>2017-11-25T11:52:58Z</time>
      </trkpt>
      <trkpt lat="44.76236" lon="5.72528">
        <ele>787</ele>
        <time>2017-11-25T11:53:10Z</time>
      </trkpt>
      <trkpt lat="44.76199" lon="5.72574">
        <ele>787</ele>
        <time>2017-11-25T11:53:19Z</time>
      </trkpt>
      <trkpt lat="44.76" lon="5.72835">
        <ele>801</ele>
        <time>2017-11-25T11:53:21Z</time>
      </trkpt>
      <trkpt lat="44.75952" lon="5.72898">
        <ele>805</ele>
        <time>2017-11-25T11:53:31Z</time>
      </trkpt>
      <trkpt lat="44.75933" lon="5.72925">
        <ele>798</ele>
        <time>2017-11-25T11:53:39Z</time>
      </trkpt>
      <trkpt lat="44.75914" lon="5.72956">
        <ele>807</ele>
        <time>2017-11-25T11:53:47Z</time>
      </trkpt>
      <trkpt lat="44.75859" lon="5.73056">
        <ele>798</ele>
        <time>2017-11-25T11:54:00Z</time>
      </trkpt>
      <trkpt lat="44.75771" lon="5.73216">
        <ele>802</ele>
        <time>2017-11-25T11:54:18Z</time>
      </trkpt>
      <trkpt lat="44.75622" lon="5.73489">
        <ele>807</ele>
        <time>2017-11-25T11:54:34Z</time>
      </trkpt>
      <trkpt lat="44.75576" lon="5.73572">
        <ele>808</ele>
        <time>2017-11-25T11:54:53Z</time>
      </trkpt>
      <trkpt lat="44.75566" lon="5.73587">
        <ele>806</ele>
        <time>2017-11-25T11:55:09Z</time>
      </trkpt>
      <trkpt lat="44.75546" lon="5.73603">
        <ele>807</ele>
        <time>2017-11-25T11:55:21Z</time>
      </trkpt>
      <trkpt lat="44.75525" lon="5.73614">
        <ele>809</ele>
        <time>2017-11-25T11:55:29Z</time>
      </trkpt>
      <trkpt lat="44.75508" lon="5.73625">
        <ele>809</ele>
        <time>2017-11-25T11:55:39Z</time>
      </trkpt>
      <trkpt lat="44.75473" lon="5.73657">
        <ele>815</ele>
        <time>2017-11-25T11:55:45Z</time>
      </trkpt>
      <trkpt lat="44.75433" lon="5.73684">
        <ele>812</ele>
        <time>2017-11-25T11:55:52Z</time>
      </trkpt>
      <trkpt lat="44.75388" lon="5.73713">
        <ele>816</ele>
        <time>2017-11-25T11:56:00Z</time>
      </trkpt>
      <trkpt lat="44.75334" lon="5.73753">
        <ele>815</ele>
        <time>2017-11-25T11:56:02Z</time>
      </trkpt>
      <trkpt lat="44.75284" lon="5.73791">
        <ele>814</ele>
        <time>2017-11-25T11:56:16Z</time>
      </trkpt>
      <trkpt lat="44.75205" lon="5.73851">
        <ele>818</ele>
        <time>2017-11-25T11:56:25Z</time>
      </trkpt>
      <trkpt lat="44.75186" lon="5.73868">
        <ele>818</ele>
        <time>2017-11-25T11:56:35Z</time>
      </trkpt>
      <trkpt lat="44.75149" lon="5.73904">
        <ele>827</ele>
        <time>2017-11-25T11:56:48Z</time>
      </trkpt>
      <trkpt lat="44.75116" lon="5.73943">
        <ele>825</ele>
        <time>2017-11-25T11:56:51Z</time>
      </trkpt>
      <trkpt lat="44.75035" lon="5.74069">
        <ele>829</ele>
        <time>2017-11-25T11:56:57Z</time>
      </trkpt>
      <trkpt lat="44.74909" lon="5.74237">
        <ele>835</ele>
        <time>2017-11-25T11:57:11Z</time>
      </trkpt>
      <trkpt lat="44.74885" lon="5.74267">
        <ele>835</ele>
        <time>2017-11-25T11:57:26Z</time>
      </trkpt>
      <trkpt lat="44.74871" lon="5.74282">
        <ele>835</ele>
        <time>2017-11-25T11:57:43Z</time>
      </trkpt>
      <trkpt lat="44.74859" lon="5.74292">
        <ele>835</ele>
        <time>2017-11-25T11:57:55Z</time>
      </trkpt>
      <trkpt lat="44.74778" lon="5.74339">
        <ele>837</ele>
        <time>2017-11-25T11:58:12Z</time>
      </trkpt>
      <trkpt lat="44.74718" lon="5.74374">
        <ele>840</ele>
        <time>2017-11-25T11:58:30Z</time>
      </trkpt>
      <trkpt lat="44.74704" lon="5.74381">
        <ele>840</ele>
        <time>2017-11-25T11:58:40Z</time>
      </trkpt>
      <trkpt lat="44.7469" lon="5.74384">
        <ele>840</ele>
        <time>2017-11-25T11:59:00Z</time>
      </trkpt>
      <trkpt lat="44.74675" lon="5.74386">
        <ele>840</ele>
        <time>2017-11-25T11:59:07Z</time>
      </trkpt>
      <trkpt lat="44.74661" lon="5.7439">
        <ele>844</ele>
        <time>2017-11-25T11:59:24Z</time>
      </trkpt>
      <trkpt lat="44.74646" lon="5.74397">
        <ele>844</ele>
        <time>2017-11-25T11:59:26Z</time>
      </trkpt>
      <trkpt lat="44.74624" lon="5.74412">
        <ele>845</ele>
        <time>2017-11-25T11:59:40Z</time>
      </trkpt>
      <trkpt lat="44.74575" lon="5.74444">
        <ele>848</ele>
        <time>2017-11-25T11:59:48Z</time>
      </trkpt>
      <trkpt lat="44.74561" lon="5.74454">
        <ele>848</ele>
        <time>2017-11-25T11:59:54Z</time>
      </trkpt>
      <trkpt lat="44.74551" lon="5.74466">
        <ele>849</ele>
        <time>2017-11-25T11:59:56Z</time>
      </trkpt>
      <trkpt lat="44.74541" lon="5.74481">
        <ele>849</ele>
        <time>2017-11-25T12:00:03Z</time>
      </trkpt>
      <trkpt lat="44.74533" lon="5.74492">
        <ele>849</ele>
        <time>2017-11-25T12:00:13Z</time>
      </trkpt>
      <trkpt lat="44.74524" lon="5.74499">
        <ele>849</ele>
        <time>2017-11-25T12:00:28Z</time>
      </trkpt>
      <trkpt lat="44.74491" lon="5.74511">
        <ele>851</ele>
        <time>2017-11-25T12:00:32Z</time>
      </trkpt>
      <trkpt lat="44.74484" lon="5.74514">
        <ele>852</ele>
        <time>2017-11-25T12:00:47Z</time>
      </trkpt>
      <trkpt lat="44.74477" lon="5.74519">
        <ele>852</ele>
        <time>2017-11-25T12:00:55Z</time>
      </trkpt>
      <trkpt lat="44.74473" lon="5.74529">
        <ele>853</ele>
        <time>2017-11-25T12:01:12Z</time>
      </trkpt>
      <trkpt lat="44.74472" lon="5.74546">
        <ele>852</ele>
        <time>2017-11-25T12:01:22Z</time>
      </trkpt>
      <trkpt lat="44.74473" lon="5.74592">
        <ele>853</ele>
        <time>2017-11-25T12:01:42Z</time>
      </trkpt>
      <trkpt lat="44.74454" lon="5.74681">
        <ele>858</ele>
        <time>2017-11-25T12:01:59Z</time>
      </trkpt>
      <trkpt lat="44.7445" lon="5.74694">
        <ele>858</ele>
        <time>2017-11-25T12:02:03Z</time>
      </trkpt>
      <trkpt lat="44.74442" lon="5.74712">
        <ele>859</ele>
        <time>2017-11-25T12:02:17Z</time>
      </trkpt>
      <trkpt lat="44.74424" lon="5.74743">
        <ele>860</ele>
        <time>2017-11-25T12:02:30Z</time>
      </trkpt>
      <trkpt lat="44.74395" lon="5.74778">
        <ele>862</ele>
        <time>2017-11-25T12:02:50Z</time>
      </trkpt>
      <trkpt lat="44.74371" lon="5.74804">
        <ele>862</ele>
        <time>2017-11-25T12:03:08Z</time>
      </trkpt>
      <trkpt lat="44.74362" lon="5.74819">
        <ele>863</ele>
        <time>2017-11-25T12:03:27Z</time>
      </trkpt>
      <trkpt lat="44.74356" lon="5.74834">
        <ele>865</ele>
        <time>2017-11-25T12:03:42Z</time>
      </trkpt>
      <trkpt lat="44.74353" lon="5.74853">
        <ele>865</ele>
        <time>2017-11-25T12:03:55Z</time>
      </trkpt>
      <trkpt lat="44.74354" lon="5.74876">
        <ele>866</ele>
        <time>2017-11-25T12:04:01Z</time>
      </trkpt>
      <trkpt lat="44.74363" lon="5.74958">
        <ele>865</ele>
        <time>2017-11-25T12:04:16Z</time>
      </trkpt>
      <trkpt lat="44.74363" lon="5.74965">
        <ele>865</ele>
        <time>2017-11-25T12:04:22Z</time>
      </trkpt>
      <trkpt lat="44.74357" lon="5.7498">
        <ele>866</ele>
        <time>2017-11-25T12:04:41Z</time>
      </trkpt>
      <trkpt lat="44.74346" lon="5.7501">
        <ele>866</ele>
        <time>2017-11-25T12:04:47Z</time>
      </trkpt>
      <trkpt lat="44.74333" lon="5.75048">
        <ele>872</ele>
        <time>2017-11-25T12:04:54Z</time>
      </trkpt>
      <trkpt lat="44.74326" lon="5.75099">
        <ele>870</ele>
        <time>2017-11-25T12:05:09Z</time>
      </trkpt>
      <trkpt lat="44.74322" lon="5.75116">
        <ele>871</ele>
        <time>2017-11-25T12:05:27Z</time>
      </trkpt>
      <trkpt lat="44.74314" lon="5.75137">
        <ele>871</ele>
        <time>2017-11-25T12:05:40Z</time>
      </trkpt>
      <trkpt lat="44.74303" lon="5.75159">
        <ele>871</ele>
        <time>2017-11-25T12:05:58Z</time>
      </trkpt>
      <trkpt lat="44.74276" lon="5.75205">
        <ele>873</ele>
        <time>2017-11-25T12:06:10Z</time>
      </trkpt>
      <trkpt lat="44.74243" lon="5.75264">
        <ele>883</ele>
        <time>2017-11-25T12:06:16Z</time>
      </trkpt>
      <trkpt lat="44.74221" lon="5.75306">
        <ele>884</ele>
        <time>2017-11-25T12:06:29Z</time>
      </trkpt>
      <trkpt lat="44.74187" lon="5.75373">
        <ele>882</ele>
        <time>2017-11-25T12:06:31Z</time>
      </trkpt>
      <trkpt lat="44.74156" lon="5.75435">
        <ele>892</ele>
        <time>2017-11-25T12:06:51Z</time>
      </trkpt>
      <trkpt lat="44.74138" lon="5.75486">
        <ele>892</ele>
        <time>2017-11-25T12:07:07Z</time>
      </trkpt>
      <trkpt lat="44.74119" lon="5.75531">
        <ele>888</ele>
        <time>2017-11-25T12:07:25Z</time>
      </trkpt>
      <trkpt lat="44.74105" lon="5.75587">
        <ele>881</ele>
        <time>2017-11-25T12:07:33Z</time>
      </trkpt>
      <trkpt lat="44.74099" lon="5.75603">
        <ele>881</ele>
        <time>2017-11-25T12:07:36Z</time>
      </trkpt>
      <trkpt lat="44.74089" lon="5.75618">
        <ele>879</ele>
        <time>2017-11-25T12:07:46Z</time>
      </trkpt>
      <trkpt lat="44.7405" lon="5.75664">
        <ele>893</ele>
        <time>2017-11-25T12:08:06Z</time>
      </trkpt>
      <trkpt lat="44.74026" lon="5.75705">
        <ele>886</ele>
        <time>2017-11-25T12:08:15Z</time>
      </trkpt>
      <trkpt lat="44.74015" lon="5.75733">
        <ele>883</ele>
        <time>2017-11-25T12:08:27Z</time>
      </trkpt>
      <trkpt lat="44.74012" lon="5.75752">
        <ele>879</ele>
        <time>2017-11-25T12:08:34Z</time>
      </trkpt>
      <trkpt lat="44.74022" lon="5.75777">
        <ele>877</ele>
        <time>2017-11-25T12:08:42Z</time>
      </trkpt>
      <trkpt lat="44.74054" lon="5.75835">
        <ele>877</ele>
        <time>2017-11-25T12:08:56Z</time>
      </trkpt>
      <trkpt lat="44.7408" lon="5.75879">
        <ele>878</ele>
        <time>2017-11-25T12:09:14Z</time>
      </trkpt>
      <trkpt lat="44.74096" lon="5.7593">
        <ele>881</ele>
        <time>2017-11-25T12:09:26Z</time>
      </trkpt>
      <trkpt lat="44.74108" lon="5.75969">
        <ele>882</ele>
        <time>2017-11-25T12:09:41Z</time>
      </trkpt>
      <trkpt lat="44.74114" lon="5.76">
        <ele>882</ele>
        <time>2017-11-25T12:09:44Z</time>
      </trkpt>
      <trkpt lat="44.74114" lon="5.76179">
        <ele>894</ele>
        <time>2017-11-25T12:09:55Z</time>
      </trkpt>
      <trkpt lat="44.74118" lon="5.76211">
        <ele>895</ele>
        <time>2017-11-25T12:10:02Z</time>
      </trkpt>
      <trkpt lat="44.74129" lon="5.76246">
        <ele>895</ele>
        <time>2017-11-25T12:10:15Z</time>
      </trkpt>
      <trkpt lat="44.74142" lon="5.76272">
        <ele>898</ele>
        <time>2017-11-25T12:10:34Z</time>
      </trkpt>
      <trkpt lat="44.74158" lon="5.76297">
        <ele>898</ele>
        <time>2017-11-25T12:10:40Z</time>
      </trkpt>
      <trkpt lat="44.74168" lon="5.76312">
        <ele>898</ele>
        <time>2017-11-25T12:10:47Z</time>
      </trkpt>
      <trkpt lat="44.74173" lon="5.76325">
        <ele>899</ele>
        <time>2017-11-25T12:10:57Z</time>
      </trkpt>
      <trkpt lat="44.74178" lon="5.7635">
        <ele>900</ele>
        <time>2017-11-25T12:11:03Z</time>
      </trkpt>
      <trkpt lat="44.74182" lon="5.76406">
        <ele>903</ele>
        <time>2017-11-25T12:11:06Z</time>
      </trkpt>
      <trkpt lat="44.74181" lon="5.76436">
        <ele>905</ele>
        <time>2017-11-25T12:11:12Z</time>
      </trkpt>
      <trkpt lat="44.74176" lon="5.76465">
        <ele>905</ele>
        <time>2017-11-25T12:11:32Z</time>
      </trkpt>
      <trkpt lat="44.74164" lon="5.76528">
        <ele>909</ele>
        <time>2017-11-25T12:11:37Z</time>
      </trkpt>
      <trkpt lat="44.74163" lon="5.76548">
        <ele>910</ele>
        <time>2017-11-25T12:11:46Z</time>
      </trkpt>
      <trkpt lat="44.74172" lon="5.76555">
        <ele>908</ele>
        <time>2017-11-25T12:11:59Z</time>
      </trkpt>
      <trkpt lat="44.74214" lon="5.76573">
        <ele>907</ele>
        <time>2017-11-25T12:12:07Z</time>
      </trkpt>
      <trkpt lat="44.74239" lon="5.76584">
        <ele>907</ele>
        <time>2017-11-25T12:12:15Z</time>
      </trkpt>
      <trkpt lat="44.74258" lon="5.76593">
        <ele>907</ele>
        <time>2017-11-25T12:12:33Z</time>
      </trkpt>
      <trkpt lat="44.74291" lon="5.76625">
        <ele>908</ele>
        <time>2017-11-25T12:12:42Z</time>
      </trkpt>
      <trkpt lat="44.74394" lon="5.76733">
        <ele>913</ele>
        <time>2017-11-25T12:12:59Z</time>
      </trkpt>
      <trkpt lat="44.74454" lon="5.76796">
        <ele>917</ele>
        <time>2017-11-25T12:13:13Z</time>
      </trkpt>
      <trkpt lat="44.74486" lon="5.76821">
        <ele>919</ele>
        <time>2017-11-25T12:13:24Z</time>
      </trkpt>
      <trkpt lat="44.74509" lon="5.76819">
        <ele>921</ele>
        <time>2017-11-25T12:13:39Z</time>
      </trkpt>
      <trkpt lat="44.74563" lon="5.76808">
        <ele>923</ele>
        <time>2017-11-25T12:13:59Z</time>
      </trkpt>
      <trkpt lat="44.74583" lon="5.76808">
        <ele>924</ele>
        <time>2017-11-25T12:14:16Z</time>
      </trkpt>
      <trkpt lat="44.74595" lon="5.76804">
        <ele>929</ele>
        <time>2017-11-25T12:14:22Z</time>
      </trkpt>
      <trkpt lat="44.74612" lon="5.76768">
        <ele>929</ele>
        <time>2017-11-25T12:14:34Z</time>
      </trkpt>
      <trkpt lat="44.74629" lon="5.76741">
        <ele>924</ele>
        <time>2017-11-25T12:14:48Z</time>
      </trkpt>
      <trkpt lat="44.74638" lon="5.76737">
        <ele>924</ele>
        <time>2017-11-25T12:14:52Z</time>
      </trkpt>
      <trkpt lat="44.74644" lon="5.76738">
        <ele>925</ele>
        <time>2017-11-25T12:15:03Z</time>
      </trkpt>
      <trkpt lat="44.74657" lon="5.76743">
        <ele>927</ele>
        <time>2017-11-25T12:15:19Z</time>
      </trkpt>
      <trkpt lat="44.74682" lon="5.76758">
        <ele>931</ele>
        <time>2017-11-25T12:15:29Z</time>
      </trkpt>
      <trkpt lat="44.74736" lon="5.76787">
        <ele>932</ele>
        <time>2017-11-25T12:15:46Z</time>
      </trkpt>
      <trkpt lat="44.74759" lon="5.76799">
        <ele>931</ele>
        <time>2017-11-25T12:15:59Z</time>
      </trkpt>
      <trkpt lat="44.74783" lon="5.76809">
        <ele>932</ele>
        <time>2017-11-25T12:16:06Z</time>
      </trkpt>
      <trkpt lat="44.74802" lon="5.76812">
        <ele>931</ele>
        <time>2017-11-25T12:16:19Z</time>
      </trkpt>
      <trkpt lat="44.7482" lon="5.7681">
        <ele>931</ele>
        <time>2017-11-25T12:16:25Z</time>
      </trkpt>
      <trkpt lat="44.7488" lon="5.76807">
        <ele>931</ele>
        <time>2017-11-25T12:16:34Z</time>
      </trkpt>
      <trkpt lat="44.74904" lon="5.768">
        <ele>931</ele>
        <time>2017-11-25T12:16:49Z</time>
      </trkpt>
      <trkpt lat="44.74993" lon="5.76729">
        <ele>932</ele>
        <time>2017-11-25T12:16:56Z</time>
      </trkpt>
      <trkpt lat="44.75009" lon="5.76709">
        <ele>939</ele>
        <time>2017-11-25T12:17:01Z</time>
      </trkpt>
      <trkpt lat="44.75048" lon="5.76672">
        <ele>941</ele>
        <time>2017-11-25T12:17:10Z</time>
      </trkpt>
      <trkpt lat="44.75065" lon="5.7666">
        <ele>941</ele>
        <time>2017-11-25T12:17:19Z</time>
      </trkpt>
      <trkpt lat="44.75114" lon="5.76634">
        <ele>946</ele>
        <time>2017-11-25T12:17:30Z</time>
      </trkpt>
      <trkpt lat="44.75136" lon="5.76618">
        <ele>947</ele>
        <time>2017-11-25T12:17:42Z</time>
      </trkpt>
      <trkpt lat="44.7517" lon="5.76596">
        <ele>950</ele>
        <time>2017-11-25T12:17:44Z</time>
      </trkpt>
      <trkpt lat="44.75182" lon="5.7658">
        <ele>952</ele>
        <time>2017-11-25T12:17:46Z</time>
      </trkpt>
      <trkpt lat="44.75188" lon="5.76555">
        <ele>955</ele>
        <time>2017-11-25T12:18:03Z</time>
      </trkpt>
      <trkpt lat="44.75186" lon="5.76536">
        <ele>956</ele>
        <time>2017-11-25T12:18:19Z</time>
      </trkpt>
      <trkpt lat="44.75177" lon="5.76511">
        <ele>955</ele>
        <time>2017-11-25T12:18:39Z</time>
      </trkpt>
      <trkpt lat="44.75154" lon="5.76466">
        <ele>954</ele>
        <time>2017-11-25T12:18:59Z</time>
      </trkpt>
      <trkpt lat="44.75142" lon="5.76444">
        <ele>955</ele>
        <time>2017-11-25T12:19:08Z</time>
      </trkpt>
      <trkpt lat="44.75115" lon="5.7641">
        <ele>960</ele>
        <time>2017-11-25T12:19:11Z</time>
      </trkpt>
      <trkpt lat="44.7511" lon="5.76394">
        <ele>960</ele>
        <time>2017-11-25T12:19:21Z</time>
      </trkpt>
      <trkpt lat="44.75111" lon="5.76383">
        <ele>962</ele>
        <time>2017-11-25T12:19:29Z</time>
      </trkpt>
      <trkpt lat="44.75115" lon="5.76378">
        <ele>963</ele>
        <time>2017-11-25T12:19:32Z</time>
      </trkpt>
      <trkpt lat="44.75122" lon="5.76378">
        <ele>963</ele>
        <time>2017-11-25T12:19:40Z</time>
      </trkpt>
      <trkpt lat="44.75128" lon="5.76385">
        <ele>964</ele>
        <time>2017-11-25T12:19:59Z</time>
      </trkpt>
      <trkpt lat="44.75146" lon="5.7641">
        <ele>965</ele>
        <time>2017-11-25T12:20:03Z</time>
      </trkpt>
      <trkpt lat="44.75154" lon="5.76422">
        <ele>961</ele>
        <time>2017-11-25T12:20:11Z</time>
      </trkpt>
      <trkpt lat="44.75165" lon="5.7643">
        <ele>961</ele>
        <time>2017-11-25T12:20:29Z</time>
      </trkpt>
      <trkpt lat="44.75202" lon="5.76457">
        <ele>969</ele>
        <time>2017-11-25T12:20:46Z</time>
      </trkpt>
      <trkpt lat="44.75217" lon="5.76467">
        <ele>970</ele>
        <time>2017-11-25T12:21:01Z</time>
      </trkpt>
      <trkpt lat="44.75228" lon="5.76468">
        <ele>971</ele>
        <time>2017-11-25T12:21:14Z</time>
      </trkpt>
      <trkpt lat="44.75251" lon="5.76471">
        <ele>982</ele>
        <time>2017-11-25T12:21:26Z</time>
      </trkpt>
      <trkpt lat="44.75264" lon="5.76484">
        <ele>980</ele>
        <time>2017-11-25T12:21:32Z</time>
      </trkpt>
      <trkpt lat="44.75269" lon="5.76491">
        <ele>980</ele>
        <time>2017-11-25T12:21:50Z</time>
      </trkpt>
      <trkpt lat="44.75289" lon="5.7651">
        <ele>973</ele>
        <time>2017-11-25T12:21:54Z</time>
      </trkpt>
      <trkpt lat="44.75304" lon="5.76518">
        <ele>975</ele>
        <time>2017-11-25T12:22:03Z</time>
      </trkpt>
      <trkpt lat="44.75368" lon="5.76529">
        <ele>991</ele>
        <time>2017-11-25T12:22:08Z</time>
      </trkpt>
      <trkpt lat="44.75382" lon="5.76535">
        <ele>993</ele>
        <time>2017-11-25T12:22:19Z</time>
      </trkpt>
      <trkpt lat="44.75389" lon="5.76541">
        <ele>993</ele>
        <time>2017-11-25T12:22:31Z</time>
      </trkpt>
      <trkpt lat="44.7542" lon="5.76575">
        <ele>1002</ele>
        <time>2017-11-25T12:22:42Z</time>
      </trkpt>
      <trkpt lat="44.75434" lon="5.76591">
        <ele>998</ele>
        <time>2017-11-25T12:22:46Z</time>
      </trkpt>
      <trkpt lat="44.7545" lon="5.76624">
        <ele>999</ele>
        <time>2017-11-25T12:23:01Z</time>
      </trkpt>
      <trkpt lat="44.75458" lon="5.7665">
        <ele>997</ele>
        <time>2017-11-25T12:23:14Z</time>
      </trkpt>
      <trkpt lat="44.75468" lon="5.76657">
        <ele>998</ele>
        <time>2017-11-25T12:23:33Z</time>
      </trkpt>
      <trkpt lat="44.7553" lon="5.76671">
        <ele>1004</ele>
        <time>2017-11-25T12:23:48Z</time>
      </trkpt>
      <trkpt lat="44.75566" lon="5.76683">
        <ele>1009</ele>
        <time>2017-11-25T12:23:53Z</time>
      </trkpt>
      <trkpt lat="44.75598" lon="5.76689">
        <ele>1024</ele>
        <time>2017-11-25T12:23:59Z</time>
      </trkpt>
      <trkpt lat="44.75604" lon="5.76698">
        <ele>1025</ele>
        <time>2017-11-25T12:24:07Z</time>
      </trkpt>
      <trkpt lat="44.75606" lon="5.76718">
        <ele>1024</ele>
        <time>2017-11-25T12:24:17Z</time>
      </trkpt>
      <trkpt lat="44.756" lon="5.76727">
        <ele>1022</ele>
        <time>2017-11-25T12:24:34Z</time>
      </trkpt>
      <trkpt lat="44.75595" lon="5.76745">
        <ele>1017</ele>
        <time>2017-11-25T12:24:53Z</time>
      </trkpt>
      <trkpt lat="44.75593" lon="5.76758">
        <ele>1013</ele>
        <time>2017-11-25T12:25:02Z</time>
      </trkpt>
      <trkpt lat="44.75595" lon="5.76766">
        <ele>1015</ele>
        <time>2017-11-25T12:25:09Z</time>
      </trkpt>
      <trkpt lat="44.75614" lon="5.76799">
        <ele>1017</ele>
        <time>2017-11-25T12:25:19Z</time>
      </trkpt>
      <trkpt lat="44.75634" lon="5.76826">
        <ele>1020</ele>
        <time>2017-11-25T12:25:23Z</time>
      </trkpt>
      <trkpt lat="44.75654" lon="5.76843">
        <ele>1019</ele>
        <time>2017-11-25T12:25:37Z</time>
      </trkpt>
      <trkpt lat="44.7566" lon="5.76847">
        <ele>1019</ele>
        <time>2017-11-25T12:25:46Z</time>
      </trkpt>
      <trkpt lat="44.75666" lon="5.76847">
        <ele>1020</ele>
        <time>2017-11-25T12:25:50Z</time>
      </trkpt>
      <trkpt lat="44.75679" lon="5.76841">
        <ele>1031</ele>
        <time>2017-11-25T12:26:04Z</time>
      </trkpt>
      <trkpt lat="44.75692" lon="5.76837">
        <ele>1033</ele>
        <time>2017-11-25T12:26:11Z</time>
      </trkpt>
      <trkpt lat="44.75712" lon="5.76843">
        <ele>1038</ele>
        <time>2017-11-25T12:26:19Z</time>
      </trkpt>
      <trkpt lat="44.75716" lon="5.76852">
        <ele>1038</ele>
        <time>2017-11-25T12:26:36Z</time>
      </trkpt>
      <trkpt lat="44.75717" lon="5.76868">
        <ele>1036</ele>
        <time>2017-11-25T12:26:44Z</time>
      </trkpt>
      <trkpt lat="44.75715" lon="5.76908">
        <ele>1033</ele>
        <time>2017-11-25T12:26:48Z</time>
      </trkpt>
      <trkpt lat="44.75731" lon="5.76951">
        <ele>1026</ele>
        <time>2017-11-25T12:26:59Z</time>
      </trkpt>
      <trkpt lat="44.7574" lon="5.76956">
        <ele>1026</ele>
        <time>2017-11-25T12:27:11Z</time>
      </trkpt>
      <trkpt lat="44.75746" lon="5.76956">
        <ele>1026</ele>
        <time>2017-11-25T12:27:31Z</time>
      </trkpt>
      <trkpt lat="44.75756" lon="5.76954">
        <ele>1040</ele>
        <time>2017-11-25T12:27:42Z</time>
      </trkpt>
      <trkpt lat="44.75769" lon="5.76945">
        <ele>1042</ele>
        <time>2017-11-25T12:27:59Z</time>
      </trkpt>
      <trkpt lat="44.75775" lon="5.76937">
        <ele>1043</ele>
        <time>2017-11-25T12:28:08Z</time>
      </trkpt>
      <trkpt lat="44.75792" lon="5.76922">
        <ele>1046</ele>
        <time>2017-11-25T12:28:18Z</time>
      </trkpt>
      <trkpt lat="44.75802" lon="5.7692">
        <ele>1048</ele>
        <time>2017-11-25T12:28:30Z</time>
      </trkpt>
      <trkpt lat="44.75811" lon="5.76926">
        <ele>1050</ele>
        <time>2017-11-25T12:28:35Z</time>
      </trkpt>
      <trkpt lat="44.75824" lon="5.76952">
        <ele>1047</ele>
        <time>2017-11-25T12:28:47Z</time>
      </trkpt>
      <trkpt lat="44.75869" lon="5.77036">
        <ele>1062</ele>
        <time>2017-11-25T12:29:04Z</time>
      </trkpt>
      <trkpt lat="44.75878" lon="5.77068">
        <ele>1062</ele>
        <time>2017-11-25T12:29:15Z</time>
      </trkpt>
      <trkpt lat="44.75878" lon="5.77101">
        <ele>1061</ele>
        <time>2017-11-25T12:29:22Z</time>
      </trkpt>
      <trkpt lat="44.75866" lon="5.77137">
        <ele>1061</ele>
        <time>2017-11-25T12:29:32Z</time>
      </trkpt>
      <trkpt lat="44.75843" lon="5.77187">
        <ele>1067</ele>
        <time>2017-11-25T12:29:42Z</time>
      </trkpt>
      <trkpt lat="44.75838" lon="5.77192">
        <ele>1068</ele>
        <time>2017-11-25T12:29:55Z</time>
      </trkpt>
      <trkpt lat="44.7583" lon="5.77195">
        <ele>1057</ele>
        <time>2017-11-25T12:30:05Z</time>
      </trkpt>
      <trkpt lat="44.75803" lon="5.77199">
        <ele>1056</ele>
        <time>2017-11-25T12:30:23Z</time>
      </trkpt>
      <trkpt lat="44.75799" lon="5.77204">
        <ele>1056</ele>
        <time>2017-11-25T12:30:40Z</time>
      </trkpt>
      <trkpt lat="44.75797" lon="5.77213">
        <ele>1057</ele>
        <time>2017-11-25T12:30:58Z</time>
      </trkpt>
      <trkpt lat="44.75794" lon="5.77243">
        <ele>1059</ele>
        <time>2017-11-25T12:31:10Z</time>
      </trkpt>
      <trkpt lat="44.75787" lon="5.77301">
        <ele>1071</ele>
        <time>2017-11-25T12:31:20Z</time>
      </trkpt>
      <trkpt lat="44.75775" lon="5.77393">
        <ele>1085</ele>
        <time>2017-11-25T12:31:31Z</time>
      </trkpt>
      <trkpt lat="44.75769" lon="5.77408">
        <ele>1084</ele>
        <time>2017-11-25T12:31:47Z</time>
      </trkpt>
      <trkpt lat="44.75738" lon="5.77434">
        <ele>1081</ele>
        <time>2017-11-25T12:31:49Z</time>
      </trkpt>
      <trkpt lat="44.75732" lon="5.77443">
        <ele>1083</ele>
        <time>2017-11-25T12:32:00Z</time>
      </trkpt>
      <trkpt lat="44.75732" lon="5.77452">
        <ele>1084</ele>
        <time>2017-11-25T12:32:08Z</time>
      </trkpt>
      <trkpt lat="44.75735" lon="5.77466">
        <ele>1086</ele>
        <time>2017-11-25T12:32:23Z</time>
      </trkpt>
      <trkpt lat="44.75742" lon="5.77469">
        <ele>1087</ele>
        <time>2017-11-25T12:32:36Z</time>
      </trkpt>
      <trkpt lat="44.75751" lon="5.77465">
        <ele>1101</ele>
        <time>2017-11-25T12:32:46Z</time>
      </trkpt>
      <trkpt lat="44.75782" lon="5.77427">
        <ele>1101</ele>
        <time>2017-11-25T12:33:04Z</time>
      </trkpt>
      <trkpt lat="44.75792" lon="5.77414">
        <ele>1091</ele>
        <time>2017-11-25T12:33:16Z</time>
      </trkpt>
      <trkpt lat="44.75796" lon="5.77404">
        <ele>1091</ele>
        <time>2017-11-25T12:33:32Z</time>
      </trkpt>
      <trkpt lat="44.758" lon="5.77367">
        <ele>1088</ele>
        <time>2017-11-25T12:33:44Z</time>
      </trkpt>
      <trkpt lat="44.75815" lon="5.77312">
        <ele>1077</ele>
        <time>2017-11-25T12:33:50Z</time>
      </trkpt>
      <trkpt lat="44.75821" lon="5.77299">
        <ele>1076</ele>
        <time>2017-11-25T12:34:05Z</time>
      </trkpt>
      <trkpt lat="44.75829" lon="5.77296">
        <ele>1076</ele>
        <time>2017-11-25T12:34:10Z</time>
      </trkpt>
      <trkpt lat="44.75834" lon="5.77299">
        <ele>1092</ele>
        <time>2017-11-25T12:34:17Z</time>
      </trkpt>
      <trkpt lat="44.75838" lon="5.77305">
        <ele>1092</ele>
        <time>2017-11-25T12:34:30Z</time>
      </trkpt>
      <trkpt lat="44.75846" lon="5.77322">
        <ele>1094</ele>
        <time>2017-11-25T12:34:38Z</time>
      </trkpt>
      <trkpt lat="44.75857" lon="5.77335">
        <ele>1109</ele>
        <time>2017-11-25T12:34:47Z</time>
      </trkpt>
      <trkpt lat="44.75867" lon="5.77338">
        <ele>1113</ele>
        <time>2017-11-25T12:35:05Z</time>
      </trkpt>
      <trkpt lat="44.75884" lon="5.77337">
        <ele>1117</ele>
        <time>2017-11-25T12:35:25Z</time>
      </trkpt>
      <trkpt lat="44.75914" lon="5.77324">
        <ele>1111</ele>
        <time>2017-11-25T12:35:28Z</time>
      </trkpt>
      <trkpt lat="44.75926" lon="5.77315">
        <ele>1120</ele>
        <time>2017-11-25T12:35:37Z</time>
      </trkpt>
      <trkpt lat="44.75934" lon="5.77305">
        <ele>1120</ele>
        <time>2017-11-25T12:35:55Z</time>
      </trkpt>
      <trkpt lat="44.7595" lon="5.77262">
        <ele>1116</ele>
        <time>2017-11-25T12:35:59Z</time>
      </trkpt>
      <trkpt lat="44.75982" lon="5.77218">
        <ele>1107</ele>
        <time>2017-11-25T12:36:13Z</time>
      </trkpt>
      <trkpt lat="44.76019" lon="5.77161">
        <ele>1111</ele>
        <time>2017-11-25T12:36:21Z</time>
      </trkpt>
      <trkpt lat="44.76037" lon="5.77157">
        <ele>1112</ele>
        <time>2017-11-25T12:36:40Z</time>
      </trkpt>
      <trkpt lat="44.76041" lon="5.77157">
        <ele>1112</ele>
        <time>2017-11-25T12:37:00Z</time>
      </trkpt>
      <trkpt lat="44.76044" lon="5.77159">
        <ele>1112</ele>
        <time>2017-11-25T12:37:11Z</time>
      </trkpt>
      <trkpt lat="44.76048" lon="5.77169">
        <ele>1112</ele>
        <time>2017-11-25T12:37:29Z</time>
      </trkpt>
      <trkpt lat="44.76052" lon="5.772">
        <ele>1113</ele>
        <time>2017-11-25T12:37:45Z</time>
      </trkpt>
      <trkpt lat="44.76059" lon="5.77227">
        <ele>1115</ele>
        <time>2017-11-25T12:38:01Z</time>
      </trkpt>
      <trkpt lat="44.76063" lon="5.77237">
        <ele>1115</ele>
        <time>2017-11-25T12:38:18Z</time>
      </trkpt>
      <trkpt lat="44.76081" lon="5.77264">
        <ele>1120</ele>
        <time>2017-11-25T12:38:27Z</time>
      </trkpt>
      <trkpt lat="44.76101" lon="5.77305">
        <ele>1101</ele>
        <time>2017-11-25T12:38:41Z</time>
      </trkpt>
      <trkpt lat="44.76104" lon="5.7733">
        <ele>1105</ele>
        <time>2017-11-25T12:39:00Z</time>
      </trkpt>
      <trkpt lat="44.76102" lon="5.77347">
        <ele>1102</ele>
        <time>2017-11-25T12:39:20Z</time>
      </trkpt>
      <trkpt lat="44.76096" lon="5.77358">
        <ele>1101</ele>
        <time>2017-11-25T12:39:28Z</time>
      </trkpt>
      <trkpt lat="44.76079" lon="5.77403">
        <ele>1120</ele>
        <time>2017-11-25T12:39:43Z</time>
      </trkpt>
      <trkpt lat="44.76074" lon="5.7742">
        <ele>1115</ele>
        <time>2017-11-25T12:39:45Z</time>
      </trkpt>
      <trkpt lat="44.76073" lon="5.7744">
        <ele>1119</ele>
        <time>2017-11-25T12:40:02Z</time>
      </trkpt>
      <trkpt lat="44.76064" lon="5.77483">
        <ele>1117</ele>
        <time>2017-11-25T12:40:14Z</time>
      </trkpt>
      <trkpt lat="44.76058" lon="5.77503">
        <ele>1116</ele>
        <time>2017-11-25T12:40:34Z</time>
      </trkpt>
      <trkpt lat="44.76057" lon="5.77512">
        <ele>1118</ele>
        <time>2017-11-25T12:40:45Z</time>
      </trkpt>
      <trkpt lat="44.7606" lon="5.77521">
        <ele>1118</ele>
        <time>2017-11-25T12:40:59Z</time>
      </trkpt>
      <trkpt lat="44.76085" lon="5.77561">
        <ele>1090</ele>
        <time>2017-11-25T12:41:09Z</time>
      </trkpt>
      <trkpt lat="44.76104" lon="5.77589">
        <ele>1094</ele>
        <time>2017-11-25T12:41:20Z</time>
      </trkpt>
      <trkpt lat="44.7612" lon="5.7761">
        <ele>1090</ele>
        <time>2017-11-25T12:41:35Z</time>
      </trkpt>
      <trkpt lat="44.76126" lon="5.77615">
        <ele>1089</ele>
        <time>2017-11-25T12:41:46Z</time>
      </trkpt>
      <trkpt lat="44.76135" lon="5.7762">
        <ele>1087</ele>
        <time>2017-11-25T12:41:49Z</time>
      </trkpt>
      <trkpt lat="44.7614" lon="5.77621">
        <ele>1086</ele>
        <time>2017-11-25T12:42:08Z</time>
      </trkpt>
      <trkpt lat="44.76144" lon="5.77631">
        <ele>1086</ele>
        <time>2017-11-25T12:42:10Z</time>
      </trkpt>
      <trkpt lat="44.76144" lon="5.77639">
        <ele>1086</ele>
        <time>2017-11-25T12:42:15Z</time>
      </trkpt>
      <trkpt lat="44.76139" lon="5.77653">
        <ele>1087</ele>
        <time>2017-11-25T12:42:26Z</time>
      </trkpt>
      <trkpt lat="44.76125" lon="5.77703">
        <ele>1105</ele>
        <time>2017-11-25T12:42:32Z</time>
      </trkpt>
      <trkpt lat="44.76124" lon="5.77726">
        <ele>1108</ele>
        <time>2017-11-25T12:42:38Z</time>
      </trkpt>
      <trkpt lat="44.76124" lon="5.77737">
        <ele>1108</ele>
        <time>2017-11-25T12:42:47Z</time>
      </trkpt>
      <trkpt lat="44.7613" lon="5.77749">
        <ele>1107</ele>
        <time>2017-11-25T12:43:02Z</time>
      </trkpt>
      <trkpt lat="44.76141" lon="5.77753">
        <ele>1115</ele>
        <time>2017-11-25T12:43:21Z</time>
      </trkpt>
      <trkpt lat="44.76163" lon="5.77749">
        <ele>1093</ele>
        <time>2017-11-25T12:43:40Z</time>
      </trkpt>
      <trkpt lat="44.7618" lon="5.77739">
        <ele>1086</ele>
        <time>2017-11-25T12:43:47Z</time>
      </trkpt>
      <trkpt lat="44.76191" lon="5.77733">
        <ele>1084</ele>
        <time>2017-11-25T12:44:00Z</time>
      </trkpt>
      <trkpt lat="44.76198" lon="5.77732">
        <ele>1083</ele>
        <time>2017-11-25T12:44:11Z</time>
      </trkpt>
      <trkpt lat="44.76204" lon="5.77735">
        <ele>1083</ele>
        <time>2017-11-25T12:44:22Z</time>
      </trkpt>
      <trkpt lat="44.76214" lon="5.77749">
        <ele>1084</ele>
        <time>2017-11-25T12:44:37Z</time>
      </trkpt>
      <trkpt lat="44.76224" lon="5.77752">
        <ele>1102</ele>
        <time>2017-11-25T12:44:56Z</time>
      </trkpt>
      <trkpt lat="44.76231" lon="5.77748">
        <ele>1086</ele>
        <time>2017-11-25T12:45:09Z</time>
      </trkpt>
      <trkpt lat="44.76236" lon="5.77742">
        <ele>1087</ele>
        <time>2017-11-25T12:45:27Z</time>
      </trkpt>
      <trkpt lat="44.76256" lon="5.77705">
        <ele>1080</ele>
        <time>2017-11-25T12:45:32Z</time>
      </trkpt>
      <trkpt lat="44.76264" lon="5.777">
        <ele>1079</ele>
        <time>2017-11-25T12:45:38Z</time>
      </trkpt>
      <trkpt lat="44.76271" lon="5.77704">
        <ele>1081</ele>
        <time>2017-11-25T12:45:50Z</time>
      </trkpt>
      <trkpt lat="44.76276" lon="5.77711">
        <ele>1083</ele>
        <time>2017-11-25T12:46:01Z</time>
      </trkpt>
      <trkpt lat="44.76286" lon="5.77723">
        <ele>1085</ele>
        <time>2017-11-25T12:46:11Z</time>
      </trkpt>
      <trkpt lat="44.76296" lon="5.7772">
        <ele>1085</ele>
        <time>2017-11-25T12:46:25Z</time>
      </trkpt>
      <trkpt lat="44.76303" lon="5.77701">
        <ele>1083</ele>
        <time>2017-11-25T12:46:39Z</time>
      </trkpt>
      <trkpt lat="44.76306" lon="5.77663">
        <ele>1064</ele>
        <time>2017-11-25T12:46:41Z</time>
      </trkpt>
      <trkpt lat="44.76317" lon="5.77645">
        <ele>1063</ele>
        <time>2017-11-25T12:46:56Z</time>
      </trkpt>
      <trkpt lat="44.76335" lon="5.77629">
        <ele>1065</ele>
        <time>2017-11-25T12:47:16Z</time>
      </trkpt>
      <trkpt lat="44.76362" lon="5.7761">
        <ele>1062</ele>
        <time>2017-11-25T12:47:18Z</time>
      </trkpt>
      <trkpt lat="44.76378" lon="5.7761">
        <ele>1063</ele>
        <time>2017-11-25T12:47:27Z</time>
      </trkpt>
      <trkpt lat="44.76407" lon="5.77599">
        <ele>1061</ele>
        <time>2017-11-25T12:47:47Z</time>
      </trkpt>
      <trkpt lat="44.76455" lon="5.77572">
        <ele>1046</ele>
        <time>2017-11-25T12:47:50Z</time>
      </trkpt>
      <trkpt lat="44.76481" lon="5.77552">
        <ele>1044</ele>
        <time>2017-11-25T12:48:06Z</time>
      </trkpt>
      <trkpt lat="44.76492" lon="5.77549">
        <ele>1043</ele>
        <time>2017-11-25T12:48:12Z</time>
      </trkpt>
      <trkpt lat="44.76508" lon="5.77546">
        <ele>1040</ele>
        <time>2017-11-25T12:48:18Z</time>
      </trkpt>
      <trkpt lat="44.76526" lon="5.77531">
        <ele>1037</ele>
        <time>2017-11-25T12:48:37Z</time>
      </trkpt>
      <trkpt lat="44.76547" lon="5.77515">
        <ele>1036</ele>
        <time>2017-11-25T12:48:40Z</time>
      </trkpt>
      <trkpt lat="44.76578" lon="5.77497">
        <ele>1033</ele>
        <time>2017-11-25T12:48:48Z</time>
      </trkpt>
      <trkpt lat="44.76622" lon="5.77445">
        <ele>1026</ele>
        <time>2017-11-25T12:49:05Z</time>
      </trkpt>
      <trkpt lat="44.76638" lon="5.77436">
        <ele>1026</ele>
        <time>2017-11-25T12:49:22Z</time>
      </trkpt>
      <trkpt lat="44.76657" lon="5.77437">
        <ele>1026</ele>
        <time>2017-11-25T12:49:34Z</time>
      </trkpt>
      <trkpt lat="44.76696" lon="5.77445">
        <ele>1023</ele>
        <time>2017-11-25T12:49:44Z</time>
      </trkpt>
      <trkpt lat="44.76711" lon="5.77446">
        <ele>1022</ele>
        <time>2017-11-25T12:49:50Z</time>
      </trkpt>
      <trkpt lat="44.76724" lon="5.7744">
        <ele>1022</ele>
        <time>2017-11-25T12:50:10Z</time>
      </trkpt>
      <trkpt lat="44.7675" lon="5.77419">
        <ele>1024</ele>
        <time>2017-11-25T12:50:16Z</time>
      </trkpt>
      <trkpt lat="44.76756" lon="5.77416">
        <ele>1024</ele>
        <time>2017-11-25T12:50:35Z</time>
      </trkpt>
      <trkpt lat="44.76767" lon="5.77416">
        <ele>1024</ele>
        <time>2017-11-25T12:50:45Z</time>
      </trkpt>
      <trkpt lat="44.76779" lon="5.77421">
        <ele>1022</ele>
        <time>2017-11-25T12:51:00Z</time>
      </trkpt>
      <trkpt lat="44.76786" lon="5.77429">
        <ele>1022</ele>
        <time>2017-11-25T12:51:02Z</time>
      </trkpt>
      <trkpt lat="44.7681" lon="5.77464">
        <ele>1020</ele>
        <time>2017-11-25T12:51:05Z</time>
      </trkpt>
      <trkpt lat="44.76924" lon="5.77612">
        <ele>1006</ele>
        <time>2017-11-25T12:51:10Z</time>
      </trkpt>
      <trkpt lat="44.76952" lon="5.77635">
        <ele>1005</ele>
        <time>2017-11-25T12:51:27Z</time>
      </trkpt>
      <trkpt lat="44.76964" lon="5.77646">
        <ele>1005</ele>
        <time>2017-11-25T12:51:37Z</time>
      </trkpt>
      <trkpt lat="44.76965" lon="5.77659">
        <ele>1004</ele>
        <time>2017-11-25T12:51:46Z</time>
      </trkpt>
      <trkpt lat="44.7696" lon="5.77671">
        <ele>995</ele>
        <time>2017-11-25T12:52:02Z</time>
      </trkpt>
      <trkpt lat="44.76948" lon="5.77674">
        <ele>995</ele>
        <time>2017-11-25T12:52:11Z</time>
      </trkpt>
      <trkpt lat="44.76896" lon="5.77643">
        <ele>998</ele>
        <time>2017-11-25T12:52:27Z</time>
      </trkpt>
      <trkpt lat="44.76844" lon="5.77622">
        <ele>996</ele>
        <time>2017-11-25T12:52:29Z</time>
      </trkpt>
      <trkpt lat="44.76829" lon="5.77623">
        <ele>992</ele>
        <time>2017-11-25T12:52:33Z</time>
      </trkpt>
      <trkpt lat="44.76792" lon="5.77636">
        <ele>991</ele>
        <time>2017-11-25T12:52:40Z</time>
      </trkpt>
      <trkpt lat="44.76752" lon="5.77643">
        <ele>989</ele>
        <time>2017-11-25T12:52:51Z</time>
      </trkpt>
      <trkpt lat="44.76735" lon="5.77654">
        <ele>991</ele>
        <time>2017-11-25T12:52:54Z</time>
      </trkpt>
      <trkpt lat="44.76715" lon="5.77676">
        <ele>988</ele>
        <time>2017-11-25T12:52:58Z</time>
      </trkpt>
      <trkpt lat="44.767" lon="5.777">
        <ele>989</ele>
        <time>2017-11-25T12:53:16Z</time>
      </trkpt>
      <trkpt lat="44.76688" lon="5.7773">
        <ele>989</ele>
        <time>2017-11-25T12:53:26Z</time>
      </trkpt>
      <trkpt lat="44.76684" lon="5.77769">
        <ele>986</ele>
        <time>2017-11-25T12:53:33Z</time>
      </trkpt>
      <trkpt lat="44.7669" lon="5.77844">
        <ele>979</ele>
        <time>2017-11-25T12:53:45Z</time>
      </trkpt>
      <trkpt lat="44.76692" lon="5.77894">
        <ele>975</ele>
        <time>2017-11-25T12:54:04Z</time>
      </trkpt>
      <trkpt lat="44.76688" lon="5.7791">
        <ele>975</ele>
        <time>2017-11-25T12:54:13Z</time>
      </trkpt>
      <trkpt lat="44.76667" lon="5.77946">
        <ele>968</ele>
        <time>2017-11-25T12:54:15Z</time>
      </trkpt>
      <trkpt lat="44.76649" lon="5.77989">
        <ele>967</ele>
        <time>2017-11-25T12:54:23Z</time>
      </trkpt>
      <trkpt lat="44.76642" lon="5.78011">
        <ele>964</ele>
        <time>2017-11-25T12:54:40Z</time>
      </trkpt>
      <trkpt lat="44.76642" lon="5.78026">
        <ele>964</ele>
        <time>2017-11-25T12:54:57Z</time>
      </trkpt>
      <trkpt lat="44.76647" lon="5.78041">
        <ele>964</ele>
        <time>2017-11-25T12:55:09Z</time>
      </trkpt>
      <trkpt lat="44.76684" lon="5.78089">
        <ele>956</ele>
        <time>2017-11-25T12:55:22Z</time>
      </trkpt>
      <trkpt lat="44.76708" lon="5.78112">
        <ele>954</ele>
        <time>2017-11-25T12:55:32Z</time>
      </trkpt>
      <trkpt lat="44.76743" lon="5.78133">
        <ele>952</ele>
        <time>2017-11-25T12:55:41Z</time>
      </trkpt>
      <trkpt lat="44.76802" lon="5.78166">
        <ele>946</ele>
        <time>2017-11-25T12:55:43Z</time>
      </trkpt>
      <trkpt lat="44.76825" lon="5.78176">
        <ele>946</ele>
        <time>2017-11-25T12:55:59Z</time>
      </trkpt>
      <trkpt lat="44.76856" lon="5.78176">
        <ele>945</ele>
        <time>2017-11-25T12:56:19Z</time>
      </trkpt>
      <trkpt lat="44.76899" lon="5.78173">
        <ele>943</ele>
        <time>2017-11-25T12:56:37Z</time>
      </trkpt>
      <trkpt lat="44.76923" lon="5.78171">
        <ele>940</ele>
        <time>2017-11-25T12:56:57Z</time>
      </trkpt>
      <trkpt lat="44.76951" lon="5.78172">
        <ele>939</ele>
        <time>2017-11-25T12:57:09Z</time>
      </trkpt>
      <trkpt lat="44.77036" lon="5.78184">
        <ele>931</ele>
        <time>2017-11-25T12:57:12Z</time>
      </trkpt>
      <trkpt lat="44.77085" lon="5.78184">
        <ele>925</ele>
        <time>2017-11-25T12:57:32Z</time>
      </trkpt>
      <trkpt lat="44.77159" lon="5.78187">
        <ele>921</ele>
        <time>2017-11-25T12:57:35Z</time>
      </trkpt>
      <trkpt lat="44.77218" lon="5.78191">
        <ele>914</ele>
        <time>2017-11-25T12:57:39Z</time>
      </trkpt>
      <trkpt lat="44.77264" lon="5.78179">
        <ele>909</ele>
        <time>2017-11-25T12:57:48Z</time>
      </trkpt>
      <trkpt lat="44.77279" lon="5.78175">
        <ele>908</ele>
        <time>2017-11-25T12:57:56Z</time>
      </trkpt>
      <trkpt lat="44.77294" lon="5.78174">
        <ele>908</ele>
        <time>2017-11-25T12:58:08Z</time>
      </trkpt>
      <trkpt lat="44.7733" lon="5.78179">
        <ele>907</ele>
        <time>2017-11-25T12:58:28Z</time>
      </trkpt>
      <trkpt lat="44.7736" lon="5.78178">
        <ele>905</ele>
        <time>2017-11-25T12:58:44Z</time>
      </trkpt>
      <trkpt lat="44.7739" lon="5.78174">
        <ele>903</ele>
        <time>2017-11-25T12:59:01Z</time>
      </trkpt>
      <trkpt lat="44.77414" lon="5.78172">
        <ele>902</ele>
        <time>2017-11-25T12:59:19Z</time>
      </trkpt>
      <trkpt lat="44.77426" lon="5.78179">
        <ele>901</ele>
        <time>2017-11-25T12:59:25Z</time>
      </trkpt>
      <trkpt lat="44.77475" lon="5.78209">
        <ele>901</ele>
        <time>2017-11-25T12:59:27Z</time>
      </trkpt>
      <trkpt lat="44.77497" lon="5.78215">
        <ele>901</ele>
        <time>2017-11-25T12:59:40Z</time>
      </trkpt>
      <trkpt lat="44.77524" lon="5.78216">
        <ele>898</ele>
        <time>2017-11-25T12:59:48Z</time>
      </trkpt>
      <trkpt lat="44.77556" lon="5.78211">
        <ele>897</ele>
        <time>2017-11-25T12:59:57Z</time>
      </trkpt>
      <trkpt lat="44.7758" lon="5.78205">
        <ele>896</ele>
        <time>2017-11-25T13:00:06Z</time>
      </trkpt>
      <trkpt lat="44.77614" lon="5.78191">
        <ele>893</ele>
        <time>2017-11-25T13:00:23Z</time>
      </trkpt>
      <trkpt lat="44.77649" lon="5.78172">
        <ele>892</ele>
        <time>2017-11-25T13:00:31Z</time>
      </trkpt>
      <trkpt lat="44.77669" lon="5.78173">
        <ele>890</ele>
        <time>2017-11-25T13:00:41Z</time>
      </trkpt>
      <trkpt lat="44.77706" lon="5.78196">
        <ele>891</ele>
        <time>2017-11-25T13:00:43Z</time>
      </trkpt>
      <trkpt lat="44.77721" lon="5.78198">
        <ele>891</ele>
        <time>2017-11-25T13:00:54Z</time>
      </trkpt>
      <trkpt lat="44.77751" lon="5.78193">
        <ele>890</ele>
        <time>2017-11-25T13:00:59Z</time>
      </trkpt>
      <trkpt lat="44.77795" lon="5.78181">
        <ele>890</ele>
        <time>2017-11-25T13:01:13Z</time>
      </trkpt>
      <trkpt lat="44.77834" lon="5.78167">
        <ele>889</ele>
        <time>2017-11-25T13:01:26Z</time>
      </trkpt>
      <trkpt lat="44.77891" lon="5.78134">
        <ele>888</ele>
        <time>2017-11-25T13:01:30Z</time>
      </trkpt>
      <trkpt lat="44.77943" lon="5.78102">
        <ele>887</ele>
        <time>2017-11-25T13:01:49Z</time>
      </trkpt>
      <trkpt lat="44.7795" lon="5.78093">
        <ele>887</ele>
        <time>2017-11-25T13:01:58Z</time>
      </trkpt>
      <trkpt lat="44.77972" lon="5.78062">
        <ele>884</ele>
        <time>2017-11-25T13:02:13Z</time>
      </trkpt>
      <trkpt lat="44.77981" lon="5.78052">
        <ele>884</ele>
        <time>2017-11-25T13:02:29Z</time>
      </trkpt>
      <trkpt lat="44.77992" lon="5.78044">
        <ele>883</ele>
        <time>2017-11-25T13:02:32Z</time>
      </trkpt>
      <trkpt lat="44.78067" lon="5.78011">
        <ele>884</ele>
        <time>2017-11-25T13:02:49Z</time>
      </trkpt>
      <trkpt lat="44.78079" lon="5.78002">
        <ele>885</ele>
        <time>2017-11-25T13:02:56Z</time>
      </trkpt>
      <trkpt lat="44.78086" lon="5.77983">
        <ele>892</ele>
        <time>2017-11-25T13:03:02Z</time>
      </trkpt>
      <trkpt lat="44.78085" lon="5.77922">
        <ele>889</ele>
        <time>2017-11-25T13:03:06Z</time>
      </trkpt>
      <trkpt lat="44.78078" lon="5.77784">
        <ele>877</ele>
        <time>2017-11-25T13:03:16Z</time>
      </trkpt>
      <trkpt lat="44.78075" lon="5.77715">
        <ele>872</ele>
        <time>2017-11-25T13:03:32Z</time>
      </trkpt>
      <trkpt lat="44.78079" lon="5.77659">
        <ele>870</ele>
        <time>2017-11-25T13:03:44Z</time>
      </trkpt>
      <trkpt lat="44.78079" lon="5.77602">
        <ele>867</ele>
        <time>2017-11-25T13:03:51Z</time>
      </trkpt>
      <trkpt lat="44.78072" lon="5.77455">
        <ele>862</ele>
        <time>2017-11-25T13:03:56Z</time>
      </trkpt>
      <trkpt lat="44.78077" lon="5.77396">
        <ele>860</ele>
        <time>2017-11-25T13:04:04Z</time>
      </trkpt>
      <trkpt lat="44.78085" lon="5.77361">
        <ele>861</ele>
        <time>2017-11-25T13:04:19Z</time>
      </trkpt>
      <trkpt lat="44.78091" lon="5.77346">
        <ele>860</ele>
        <time>2017-11-25T13:04:36Z</time>
      </trkpt>
      <trkpt lat="44.78101" lon="5.77327">
        <ele>858</ele>
        <time>2017-11-25T13:04:44Z</time>
      </trkpt>
      <trkpt lat="44.78121" lon="5.77298">
        <ele>858</ele>
        <time>2017-11-25T13:04:47Z</time>
      </trkpt>
      <trkpt lat="44.78138" lon="5.77274">
        <ele>858</ele>
        <time>2017-11-25T13:04:49Z</time>
      </trkpt>
      <trkpt lat="44.78149" lon="5.77252">
        <ele>858</ele>
        <time>2017-11-25T13:05:02Z</time>
      </trkpt>
      <trkpt lat="44.78181" lon="5.77168">
        <ele>855</ele>
        <time>2017-11-25T13:05:08Z</time>
      </trkpt>
      <trkpt lat="44.782" lon="5.77139">
        <ele>851</ele>
        <time>2017-11-25T13:05:24Z</time>
      </trkpt>
      <trkpt lat="44.78223" lon="5.77119">
        <ele>851</ele>
        <time>2017-11-25T13:05:28Z</time>
      </trkpt>
      <trkpt lat="44.78234" lon="5.77105">
        <ele>850</ele>
        <time>2017-11-25T13:05:32Z</time>
      </trkpt>
      <trkpt lat="44.78249" lon="5.77068">
        <ele>848</ele>
        <time>2017-11-25T13:05:50Z</time>
      </trkpt>
      <trkpt lat="44.78257" lon="5.77047">
        <ele>849</ele>
        <time>2017-11-25T13:06:05Z</time>
      </trkpt>
      <trkpt lat="44.78271" lon="5.77022">
        <ele>848</ele>
        <time>2017-11-25T13:06:19Z</time>
      </trkpt>
      <trkpt lat="44.7832" lon="5.76957">
        <ele>847</ele>
        <time>2017-11-25T13:06:35Z</time>
      </trkpt>
      <trkpt lat="44.78336" lon="5.76945">
        <ele>850</ele>
        <time>2017-11-25T13:06:40Z</time>
      </trkpt>
      <trkpt lat="44.78347" lon="5.76939">
        <ele>850</ele>
        <time>2017-11-25T13:06:56Z</time>
      </trkpt>
      <trkpt lat="44.78358" lon="5.76935">
        <ele>850</ele>
        <time>2017-11-25T13:07:05Z</time>
      </trkpt>
      <trkpt lat="44.7838" lon="5.76926">
        <ele>850</ele>
        <time>2017-11-25T13:07:25Z</time>
      </trkpt>
      <trkpt lat="44.78399" lon="5.76913">
        <ele>849</ele>
        <time>2017-11-25T13:07:44Z</time>
      </trkpt>
      <trkpt lat="44.78416" lon="5.76901">
        <ele>849</ele>
        <time>2017-11-25T13:08:01Z</time>
      </trkpt>
      <trkpt lat="44.78432" lon="5.76885">
        <ele>850</ele>
        <time>2017-11-25T13:08:21Z</time>
      </trkpt>
      <trkpt lat="44.78449" lon="5.76864">
        <ele>850</ele>
        <time>2017-11-25T13:08:39Z</time>
      </trkpt>
      <trkpt lat="44.7847" lon="5.76839">
        <ele>850</ele>
        <time>2017-11-25T13:08:44Z</time>
      </trkpt>
      <trkpt lat="44.78487" lon="5.76825">
        <ele>848</ele>
        <time>2017-11-25T13:08:49Z</time>
      </trkpt>
      <trkpt lat="44.78512" lon="5.7681">
        <ele>848</ele>
        <time>2017-11-25T13:09:09Z</time>
      </trkpt>
      <trkpt lat="44.78569" lon="5.76776">
        <ele>847</ele>
        <time>2017-11-25T13:09:26Z</time>
      </trkpt>
      <trkpt lat="44.78612" lon="5.76755">
        <ele>846</ele>
        <time>2017-11-25T13:09:42Z</time>
      </trkpt>
      <trkpt lat="44.78691" lon="5.76732">
        <ele>844</ele>
        <time>2017-11-25T13:09:58Z</time>
      </trkpt>
      <trkpt lat="44.78745" lon="5.76714">
        <ele>844</ele>
        <time>2017-11-25T13:10:01Z</time>
      </trkpt>
      <trkpt lat="44.78777" lon="5.76701">
        <ele>846</ele>
        <time>2017-11-25T13:10:12Z</time>
      </trkpt>
      <trkpt lat="44.78789" lon="5.76695">
        <ele>846</ele>
        <time>2017-11-25T13:10:21Z</time>
      </trkpt>
      <trkpt lat="44.78806" lon="5.76682">
        <ele>847</ele>
        <time>2017-11-25T13:10:32Z</time>
      </trkpt>
      <trkpt lat="44.78819" lon="5.76662">
        <ele>846</ele>
        <time>2017-11-25T13:10:50Z</time>
      </trkpt>
      <trkpt lat="44.78825" lon="5.76647">
        <ele>845</ele>
        <time>2017-11-25T13:11:10Z</time>
      </trkpt>
      <trkpt lat="44.78835" lon="5.76611">
        <ele>850</ele>
        <time>2017-11-25T13:11:17Z</time>
      </trkpt>
      <trkpt lat="44.78843" lon="5.76583">
        <ele>844</ele>
        <time>2017-11-25T13:11:32Z</time>
      </trkpt>
      <trkpt lat="44.78856" lon="5.76549">
        <ele>845</ele>
        <time>2017-11-25T13:11:34Z</time>
      </trkpt>
      <trkpt lat="44.78873" lon="5.76513">
        <ele>844</ele>
        <time>2017-11-25T13:11:36Z</time>
      </trkpt>
      <trkpt lat="44.7889" lon="5.76485">
        <ele>839</ele>
        <time>2017-11-25T13:11:38Z</time>
      </trkpt>
      <trkpt lat="44.78905" lon="5.76466">
        <ele>838</ele>
        <time>2017-11-25T13:11:50Z</time>
      </trkpt>
      <trkpt lat="44.78934" lon="5.76434">
        <ele>841</ele>
        <time>2017-11-25T13:11:52Z</time>
      </trkpt>
      <trkpt lat="44.78959" lon="5.76397">
        <ele>837</ele>
        <time>2017-11-25T13:12:01Z</time>
      </trkpt>
      <trkpt lat="44.79035" lon="5.76266">
        <ele>835</ele>
        <time>2017-11-25T13:12:09Z</time>
      </trkpt>
      <trkpt lat="44.79079" lon="5.76209">
        <ele>828</ele>
        <time>2017-11-25T13:12:15Z</time>
      </trkpt>
      <trkpt lat="44.79092" lon="5.76193">
        <ele>833</ele>
        <time>2017-11-25T13:12:27Z</time>
      </trkpt>
      <trkpt lat="44.79131" lon="5.76156">
        <ele>828</ele>
        <time>2017-11-25T13:12:30Z</time>
      </trkpt>
      <trkpt lat="44.79162" lon="5.76125">
        <ele>827</ele>
        <time>2017-11-25T13:12:40Z</time>
      </trkpt>
      <trkpt lat="44.7919" lon="5.7609">
        <ele>832</ele>
        <time>2017-11-25T13:12:52Z</time>
      </trkpt>
      <trkpt lat="44.79213" lon="5.76053">
        <ele>826</ele>
        <time>2017-11-25T13:12:58Z</time>
      </trkpt>
      <trkpt lat="44.79236" lon="5.7601">
        <ele>825</ele>
        <time>2017-11-25T13:13:04Z</time>
      </trkpt>
      <trkpt lat="44.79254" lon="5.75988">
        <ele>826</ele>
        <time>2017-11-25T13:13:21Z</time>
      </trkpt>
      <trkpt lat="44.79273" lon="5.75975">
        <ele>827</ele>
        <time>2017-11-25T13:13:33Z</time>
      </trkpt>
      <trkpt lat="44.79285" lon="5.75966">
        <ele>827</ele>
        <time>2017-11-25T13:13:51Z</time>
      </trkpt>
      <trkpt lat="44.79288" lon="5.75952">
        <ele>826</ele>
        <time>2017-11-25T13:13:53Z</time>
      </trkpt>
      <trkpt lat="44.79271" lon="5.75961">
        <ele>825</ele>
        <time>2017-11-25T13:14:12Z</time>
      </trkpt>
      <trkpt lat="44.79253" lon="5.75966">
        <ele>825</ele>
        <time>2017-11-25T13:14:17Z</time>
      </trkpt>
      <trkpt lat="44.79233" lon="5.75968">
        <ele>816</ele>
        <time>2017-11-25T13:14:22Z</time>
      </trkpt>
      <trkpt lat="44.79214" lon="5.75965">
        <ele>815</ele>
        <time>2017-11-25T13:14:42Z</time>
      </trkpt>
      <trkpt lat="44.79145" lon="5.75942">
        <ele>809</ele>
        <time>2017-11-25T13:14:48Z</time>
      </trkpt>
      <trkpt lat="44.79075" lon="5.75916">
        <ele>803</ele>
        <time>2017-11-25T13:15:01Z</time>
      </trkpt>
      <trkpt lat="44.79054" lon="5.75913">
        <ele>800</ele>
        <time>2017-11-25T13:15:17Z</time>
      </trkpt>
      <trkpt lat="44.79041" lon="5.75917">
        <ele>806</ele>
        <time>2017-11-25T13:15:22Z</time>
      </trkpt>
      <trkpt lat="44.79026" lon="5.75924">
        <ele>806</ele>
        <time>2017-11-25T13:15:40Z</time>
      </trkpt>
      <trkpt lat="44.79012" lon="5.75929">
        <ele>805</ele>
        <time>2017-11-25T13:15:57Z</time>
      </trkpt>
      <trkpt lat="44.78996" lon="5.75931">
        <ele>804</ele>
        <time>2017-11-25T13:16:14Z</time>
      </trkpt>
      <trkpt lat="44.78979" lon="5.75929">
        <ele>805</ele>
        <time>2017-11-25T13:16:32Z</time>
      </trkpt>
      <trkpt lat="44.78952" lon="5.75922">
        <ele>804</ele>
        <time>2017-11-25T13:16:35Z</time>
      </trkpt>
      <trkpt lat="44.78916" lon="5.75912">
        <ele>800</ele>
        <time>2017-11-25T13:16:54Z</time>
      </trkpt>
      <trkpt lat="44.78884" lon="5.7591">
        <ele>800</ele>
        <time>2017-11-25T13:17:07Z</time>
      </trkpt>
      <trkpt lat="44.78859" lon="5.75913">
        <ele>800</ele>
        <time>2017-11-25T13:17:25Z</time>
      </trkpt>
      <trkpt lat="44.78847" lon="5.7591">
        <ele>801</ele>
        <time>2017-11-25T13:17:36Z</time>
      </trkpt>
      <trkpt lat="44.78838" lon="5.75904">
        <ele>801</ele>
        <time>2017-11-25T13:17:53Z</time>
      </trkpt>
      <trkpt lat="44.78832" lon="5.75896">
        <ele>805</ele>
        <time>2017-11-25T13:18:10Z</time>
      </trkpt>
      <trkpt lat="44.78827" lon="5.75881">
        <ele>806</ele>
        <time>2017-11-25T13:18:19Z</time>
      </trkpt>
      <trkpt lat="44.78826" lon="5.75867">
        <ele>807</ele>
        <time>2017-11-25T13:18:28Z</time>
      </trkpt>
      <trkpt lat="44.78827" lon="5.75853">
        <ele>807</ele>
        <time>2017-11-25T13:18:48Z</time>
      </trkpt>
      <trkpt lat="44.7884" lon="5.75826">
        <ele>805</ele>
        <time>2017-11-25T13:18:58Z</time>
      </trkpt>
      <trkpt lat="44.78856" lon="5.75798">
        <ele>806</ele>
        <time>2017-11-25T13:19:11Z</time>
      </trkpt>
      <trkpt lat="44.78884" lon="5.75768">
        <ele>805</ele>
        <time>2017-11-25T13:19:18Z</time>
      </trkpt>
      <trkpt lat="44.78916" lon="5.75744">
        <ele>805</ele>
        <time>2017-11-25T13:19:33Z</time>
      </trkpt>
      <trkpt lat="44.7892" lon="5.75736">
        <ele>803</ele>
        <time>2017-11-25T13:19:52Z</time>
      </trkpt>
      <trkpt lat="44.78921" lon="5.75728">
        <ele>803</ele>
        <time>2017-11-25T13:20:03Z</time>
      </trkpt>
      <trkpt lat="44.78918" lon="5.75722">
        <ele>803</ele>
        <time>2017-11-25T13:20:23Z</time>
      </trkpt>
      <trkpt lat="44.78912" lon="5.7572">
        <ele>811</ele>
        <time>2017-11-25T13:20:40Z</time>
      </trkpt>
      <trkpt lat="44.78905" lon="5.75723">
        <ele>811</ele>
        <time>2017-11-25T13:20:44Z</time>
      </trkpt>
      <trkpt lat="44.78884" lon="5.75739">
        <ele>812</ele>
        <time>2017-11-25T13:21:03Z</time>
      </trkpt>
      <trkpt lat="44.78848" lon="5.75765">
        <ele>811</ele>
        <time>2017-11-25T13:21:16Z</time>
      </trkpt>
      <trkpt lat="44.78825" lon="5.75791">
        <ele>817</ele>
        <time>2017-11-25T13:21:34Z</time>
      </trkpt>
      <trkpt lat="44.78812" lon="5.75804">
        <ele>816</ele>
        <time>2017-11-25T13:21:49Z</time>
      </trkpt>
      <trkpt lat="44.788" lon="5.75811">
        <ele>817</ele>
        <time>2017-11-25T13:22:09Z</time>
      </trkpt>
      <trkpt lat="44.78765" lon="5.75827">
        <ele>820</ele>
        <time>2017-11-25T13:22:12Z</time>
      </trkpt>
      <trkpt lat="44.78752" lon="5.75834">
        <ele>820</ele>
        <time>2017-11-25T13:22:28Z</time>
      </trkpt>
      <trkpt lat="44.78742" lon="5.75837">
        <ele>822</ele>
        <time>2017-11-25T13:22:37Z</time>
      </trkpt>
      <trkpt lat="44.78735" lon="5.75835">
        <ele>822</ele>
        <time>2017-11-25T13:22:45Z</time>
      </trkpt>
      <trkpt lat="44.78731" lon="5.75832">
        <ele>829</ele>
        <time>2017-11-25T13:23:04Z</time>
      </trkpt>
      <trkpt lat="44.78729" lon="5.75825">
        <ele>830</ele>
        <time>2017-11-25T13:23:19Z</time>
      </trkpt>
      <trkpt lat="44.78732" lon="5.75814">
        <ele>830</ele>
        <time>2017-11-25T13:23:25Z</time>
      </trkpt>
      <trkpt lat="44.78754" lon="5.7577">
        <ele>825</ele>
        <time>2017-11-25T13:23:40Z</time>
      </trkpt>
      <trkpt lat="44.78783" lon="5.75707">
        <ele>827</ele>
        <time>2017-11-25T13:23:50Z</time>
      </trkpt>
      <trkpt lat="44.78797" lon="5.75664">
        <ele>828</ele>
        <time>2017-11-25T13:24:07Z</time>
      </trkpt>
      <trkpt lat="44.78809" lon="5.75609">
        <ele>827</ele>
        <time>2017-11-25T13:24:20Z</time>
      </trkpt>
      <trkpt lat="44.78812" lon="5.75586">
        <ele>827</ele>
        <time>2017-11-25T13:24:31Z</time>
      </trkpt>
      <trkpt lat="44.78811" lon="5.75572">
        <ele>826</ele>
        <time>2017-11-25T13:24:42Z</time>
      </trkpt>
      <trkpt lat="44.78806" lon="5.7556">
        <ele>826</ele>
        <time>2017-11-25T13:24:52Z</time>
      </trkpt>
      <trkpt lat="44.78794" lon="5.7555">
        <ele>827</ele>
        <time>2017-11-25T13:25:03Z</time>
      </trkpt>
      <trkpt lat="44.78782" lon="5.75543">
        <ele>827</ele>
        <time>2017-11-25T13:25:18Z</time>
      </trkpt>
      <trkpt lat="44.78761" lon="5.75534">
        <ele>827</ele>
        <time>2017-11-25T13:25:23Z</time>
      </trkpt>
      <trkpt lat="44.78744" lon="5.75525">
        <ele>832</ele>
        <time>2017-11-25T13:25:40Z</time>
      </trkpt>
      <trkpt lat="44.78725" lon="5.75509">
        <ele>832</ele>
        <time>2017-11-25T13:25:54Z</time>
      </trkpt>
      <trkpt lat="44.78682" lon="5.75465">
        <ele>831</ele>
        <time>2017-11-25T13:26:07Z</time>
      </trkpt>
      <trkpt lat="44.78639" lon="5.75432">
        <ele>838</ele>
        <time>2017-11-25T13:26:22Z</time>
      </trkpt>
      <trkpt lat="44.78619" lon="5.75415">
        <ele>837</ele>
        <time>2017-11-25T13:26:39Z</time>
      </trkpt>
      <trkpt lat="44.78605" lon="5.75397">
        <ele>838</ele>
        <time>2017-11-25T13:26:50Z</time>
      </trkpt>
      <trkpt lat="44.78584" lon="5.7536">
        <ele>838</ele>
        <time>2017-11-25T13:27:08Z</time>
      </trkpt>
      <trkpt lat="44.78557" lon="5.75291">
        <ele>839</ele>
        <time>2017-11-25T13:27:27Z</time>
      </trkpt>
      <trkpt lat="44.78548" lon="5.75279">
        <ele>839</ele>
        <time>2017-11-25T13:27:44Z</time>
      </trkpt>
      <trkpt lat="44.78538" lon="5.7527">
        <ele>839</ele>
        <time>2017-11-25T13:27:57Z</time>
      </trkpt>
      <trkpt lat="44.78527" lon="5.75265">
        <ele>839</ele>
        <time>2017-11-25T13:28:17Z</time>
      </trkpt>
      <trkpt lat="44.78514" lon="5.75264">
        <ele>838</ele>
        <time>2017-11-25T13:28:22Z</time>
      </trkpt>
      <trkpt lat="44.78495" lon="5.75269">
        <ele>840</ele>
        <time>2017-11-25T13:28:32Z</time>
      </trkpt>
      <trkpt lat="44.78476" lon="5.75278">
        <ele>841</ele>
        <time>2017-11-25T13:28:45Z</time>
      </trkpt>
      <trkpt lat="44.78422" lon="5.75313">
        <ele>844</ele>
        <time>2017-11-25T13:29:02Z</time>
      </trkpt>
      <trkpt lat="44.78401" lon="5.75318">
        <ele>845</ele>
        <time>2017-11-25T13:29:21Z</time>
      </trkpt>
      <trkpt lat="44.78385" lon="5.75319">
        <ele>846</ele>
        <time>2017-11-25T13:29:26Z</time>
      </trkpt>
      <trkpt lat="44.78348" lon="5.75318">
        <ele>847</ele>
        <time>2017-11-25T13:29:29Z</time>
      </trkpt>
      <trkpt lat="44.78331" lon="5.75314">
        <ele>849</ele>
        <time>2017-11-25T13:29:43Z</time>
      </trkpt>
      <trkpt lat="44.78323" lon="5.75304">
        <ele>849</ele>
        <time>2017-11-25T13:30:02Z</time>
      </trkpt>
      <trkpt lat="44.78321" lon="5.75288">
        <ele>848</ele>
        <time>2017-11-25T13:30:07Z</time>
      </trkpt>
      <trkpt lat="44.78327" lon="5.7526">
        <ele>847</ele>
        <time>2017-11-25T13:30:18Z</time>
      </trkpt>
      <trkpt lat="44.78327" lon="5.75244">
        <ele>846</ele>
        <time>2017-11-25T13:30:37Z</time>
      </trkpt>
      <trkpt lat="44.78325" lon="5.75227">
        <ele>846</ele>
        <time>2017-11-25T13:30:42Z</time>
      </trkpt>
      <trkpt lat="44.78294" lon="5.75165">
        <ele>844</ele>
        <time>2017-11-25T13:30:50Z</time>
      </trkpt>
      <trkpt lat="44.78267" lon="5.75111">
        <ele>845</ele>
        <time>2017-11-25T13:30:59Z</time>
      </trkpt>
      <trkpt lat="44.78243" lon="5.75053">
        <ele>850</ele>
        <time>2017-11-25T13:31:13Z</time>
      </trkpt>
      <trkpt lat="44.78214" lon="5.74973">
        <ele>851</ele>
        <time>2017-11-25T13:31:23Z</time>
      </trkpt>
      <trkpt lat="44.78208" lon="5.74952">
        <ele>851</ele>
        <time>2017-11-25T13:31:31Z</time>
      </trkpt>
      <trkpt lat="44.78203" lon="5.74927">
        <ele>852</ele>
        <time>2017-11-25T13:31:43Z</time>
      </trkpt>
      <trkpt lat="44.78207" lon="5.74899">
        <ele>852</ele>
        <time>2017-11-25T13:32:00Z</time>
      </trkpt>
      <trkpt lat="44.78213" lon="5.74882">
        <ele>852</ele>
        <time>2017-11-25T13:32:14Z</time>
      </trkpt>
      <trkpt lat="44.78268" lon="5.7481">
        <ele>849</ele>
        <time>2017-11-25T13:32:16Z</time>
      </trkpt>
      <trkpt lat="44.78301" lon="5.74763">
        <ele>848</ele>
        <time>2017-11-25T13:32:21Z</time>
      </trkpt>
      <trkpt lat="44.78325" lon="5.7472">
        <ele>850</ele>
        <time>2017-11-25T13:32:26Z</time>
      </trkpt>
      <trkpt lat="44.78339" lon="5.74683">
        <ele>848</ele>
        <time>2017-11-25T13:32:32Z</time>
      </trkpt>
      <trkpt lat="44.78346" lon="5.74658">
        <ele>850</ele>
        <time>2017-11-25T13:32:38Z</time>
      </trkpt>
      <trkpt lat="44.78351" lon="5.74633">
        <ele>849</ele>
        <time>2017-11-25T13:32:54Z</time>
      </trkpt>
      <trkpt lat="44.78354" lon="5.74607">
        <ele>850</ele>
        <time>2017-11-25T13:33:14Z</time>
      </trkpt>
      <trkpt lat="44.78354" lon="5.74581">
        <ele>851</ele>
        <time>2017-11-25T13:33:33Z</time>
      </trkpt>
      <trkpt lat="44.78346" lon="5.74505">
        <ele>852</ele>
        <time>2017-11-25T13:33:44Z</time>
      </trkpt>
      <trkpt lat="44.78307" lon="5.74201">
        <ele>854</ele>
        <time>2017-11-25T13:33:57Z</time>
      </trkpt>
      <trkpt lat="44.78288" lon="5.74033">
        <ele>850</ele>
        <time>2017-11-25T13:33:59Z</time>
      </trkpt>
      <trkpt lat="44.78283" lon="5.74019">
        <ele>850</ele>
        <time>2017-11-25T13:34:11Z</time>
      </trkpt>
      <trkpt lat="44.78277" lon="5.74012">
        <ele>849</ele>
        <time>2017-11-25T13:34:14Z</time>
      </trkpt>
      <trkpt lat="44.78271" lon="5.74011">
        <ele>849</ele>
        <time>2017-11-25T13:34:26Z</time>
      </trkpt>
      <trkpt lat="44.78266" lon="5.74014">
        <ele>849</ele>
        <time>2017-11-25T13:34:34Z</time>
      </trkpt>
      <trkpt lat="44.78243" lon="5.74054">
        <ele>846</ele>
        <time>2017-11-25T13:34:47Z</time>
      </trkpt>
      <trkpt lat="44.78223" lon="5.74075">
        <ele>846</ele>
        <time>2017-11-25T13:34:50Z</time>
      </trkpt>
      <trkpt lat="44.78192" lon="5.74101">
        <ele>848</ele>
        <time>2017-11-25T13:34:57Z</time>
      </trkpt>
      <trkpt lat="44.78153" lon="5.74134">
        <ele>844</ele>
        <time>2017-11-25T13:35:17Z</time>
      </trkpt>
      <trkpt lat="44.78127" lon="5.74151">
        <ele>843</ele>
        <time>2017-11-25T13:35:23Z</time>
      </trkpt>
      <trkpt lat="44.78103" lon="5.74162">
        <ele>841</ele>
        <time>2017-11-25T13:35:27Z</time>
      </trkpt>
      <trkpt lat="44.78088" lon="5.74165">
        <ele>840</ele>
        <time>2017-11-25T13:35:47Z</time>
      </trkpt>
      <trkpt lat="44.78074" lon="5.74164">
        <ele>838</ele>
        <time>2017-11-25T13:35:54Z</time>
      </trkpt>
      <trkpt lat="44.78049" lon="5.74157">
        <ele>834</ele>
        <time>2017-11-25T13:36:09Z</time>
      </trkpt>
      <trkpt lat="44.78018" lon="5.74147">
        <ele>833</ele>
        <time>2017-11-25T13:36:13Z</time>
      </trkpt>
      <trkpt lat="44.78009" lon="5.74144">
        <ele>833</ele>
        <time>2017-11-25T13:36:25Z</time>
      </trkpt>
      <trkpt lat="44.7798" lon="5.74138">
        <ele>831</ele>
        <time>2017-11-25T13:36:28Z</time>
      </trkpt>
      <trkpt lat="44.77949" lon="5.74134">
        <ele>830</ele>
        <time>2017-11-25T13:36:31Z</time>
      </trkpt>
      <trkpt lat="44.77936" lon="5.74129">
        <ele>830</ele>
        <time>2017-11-25T13:36:48Z</time>
      </trkpt>
      <trkpt lat="44.77924" lon="5.7412">
        <ele>830</ele>
        <time>2017-11-25T13:36:56Z</time>
      </trkpt>
      <trkpt lat="44.77911" lon="5.74101">
        <ele>830</ele>
        <time>2017-11-25T13:37:06Z</time>
      </trkpt>
      <trkpt lat="44.77899" lon="5.74077">
        <ele>829</ele>
        <time>2017-11-25T13:37:15Z</time>
      </trkpt>
      <trkpt lat="44.77907" lon="5.74058">
        <ele>829</ele>
        <time>2017-11-25T13:37:18Z</time>
      </trkpt>
      <trkpt lat="44.77926" lon="5.74013">
        <ele>825</ele>
        <time>2017-11-25T13:37:31Z</time>
      </trkpt>
      <trkpt lat="44.77956" lon="5.73936">
        <ele>823</ele>
        <time>2017-11-25T13:37:33Z</time>
      </trkpt>
      <trkpt lat="44.77984" lon="5.73861">
        <ele>823</ele>
        <time>2017-11-25T13:37:49Z</time>
      </trkpt>
      <trkpt lat="44.77996" lon="5.73801">
        <ele>822</ele>
        <time>2017-11-25T13:38:05Z</time>
      </trkpt>
      <trkpt lat="44.78009" lon="5.73726">
        <ele>815</ele>
        <time>2017-11-25T13:38:11Z</time>
      </trkpt>
      <trkpt lat="44.78017" lon="5.73667">
        <ele>814</ele>
        <time>2017-11-25T13:38:22Z</time>
      </trkpt>
      <trkpt lat="44.78024" lon="5.73647">
        <ele>811</ele>
        <time>2017-11-25T13:38:36Z</time>
      </trkpt>
      <trkpt lat="44.78043" lon="5.73619">
        <ele>810</ele>
        <time>2017-11-25T13:38:52Z</time>
      </trkpt>
      <trkpt lat="44.78083" lon="5.73571">
        <ele>805</ele>
        <time>2017-11-25T13:39:10Z</time>
      </trkpt>
      <trkpt lat="44.78098" lon="5.73552">
        <ele>803</ele>
        <time>2017-11-25T13:39:22Z</time>
      </trkpt>
      <trkpt lat="44.78107" lon="5.73535">
        <ele>803</ele>
        <time>2017-11-25T13:39:37Z</time>
      </trkpt>
      <trkpt lat="44.78122" lon="5.73475">
        <ele>802</ele>
        <time>2017-11-25T13:39:54Z</time>
      </trkpt>
      <trkpt lat="44.78136" lon="5.73397">
        <ele>800</ele>
        <time>2017-11-25T13:39:56Z</time>
      </trkpt>
      <trkpt lat="44.78153" lon="5.73293">
        <ele>797</ele>
        <time>2017-11-25T13:40:13Z</time>
      </trkpt>
      <trkpt lat="44.78154" lon="5.73277">
        <ele>797</ele>
        <time>2017-11-25T13:40:20Z</time>
      </trkpt>
      <trkpt lat="44.78161" lon="5.73275">
        <ele>796</ele>
        <time>2017-11-25T13:40:34Z</time>
      </trkpt>
      <trkpt lat="44.78196" lon="5.73286">
        <ele>793</ele>
        <time>2017-11-25T13:40:45Z</time>
      </trkpt>
      <trkpt lat="44.78246" lon="5.73306">
        <ele>791</ele>
        <time>2017-11-25T13:40:55Z</time>
      </trkpt>
      <trkpt lat="44.78256" lon="5.73312">
        <ele>789</ele>
        <time>2017-11-25T13:41:15Z</time>
      </trkpt>
      <trkpt lat="44.78278" lon="5.73333">
        <ele>789</ele>
        <time>2017-11-25T13:41:26Z</time>
      </trkpt>
      <trkpt lat="44.78296" lon="5.73352">
        <ele>792</ele>
        <time>2017-11-25T13:41:32Z</time>
      </trkpt>
      <trkpt lat="44.78304" lon="5.73357">
        <ele>793</ele>
        <time>2017-11-25T13:41:44Z</time>
      </trkpt>
      <trkpt lat="44.78315" lon="5.7336">
        <ele>793</ele>
        <time>2017-11-25T13:41:47Z</time>
      </trkpt>
      <trkpt lat="44.78328" lon="5.73359">
        <ele>793</ele>
        <time>2017-11-25T13:41:54Z</time>
      </trkpt>
      <trkpt lat="44.78363" lon="5.73356">
        <ele>794</ele>
        <time>2017-11-25T13:42:02Z</time>
      </trkpt>
      <trkpt lat="44.78402" lon="5.73361">
        <ele>794</ele>
        <time>2017-11-25T13:42:14Z</time>
      </trkpt>
      <trkpt lat="44.78451" lon="5.73374">
        <ele>792</ele>
        <time>2017-11-25T13:42:18Z</time>
      </trkpt>
      <trkpt lat="44.78473" lon="5.73382">
        <ele>791</ele>
        <time>2017-11-25T13:42:33Z</time>
      </trkpt>
      <trkpt lat="44.78495" lon="5.73394">
        <ele>790</ele>
        <time>2017-11-25T13:42:37Z</time>
      </trkpt>
      <trkpt lat="44.78516" lon="5.73407">
        <ele>786</ele>
        <time>2017-11-25T13:42:39Z</time>
      </trkpt>
      <trkpt lat="44.7853" lon="5.73417">
        <ele>788</ele>
        <time>2017-11-25T13:42:57Z</time>
      </trkpt>
      <trkpt lat="44.78545" lon="5.73431">
        <ele>788</ele>
        <time>2017-11-25T13:43:13Z</time>
      </trkpt>
      <trkpt lat="44.78554" lon="5.73437">
        <ele>787</ele>
        <time>2017-11-25T13:43:30Z</time>
      </trkpt>
      <trkpt lat="44.78576" lon="5.73439">
        <ele>785</ele>
        <time>2017-11-25T13:43:43Z</time>
      </trkpt>
      <trkpt lat="44.78603" lon="5.73439">
        <ele>779</ele>
        <time>2017-11-25T13:43:54Z</time>
      </trkpt>
      <trkpt lat="44.7862" lon="5.73436">
        <ele>778</ele>
        <time>2017-11-25T13:43:57Z</time>
      </trkpt>
      <trkpt lat="44.78631" lon="5.7343">
        <ele>777</ele>
        <time>2017-11-25T13:43:59Z</time>
      </trkpt>
      <trkpt lat="44.78641" lon="5.73422">
        <ele>776</ele>
        <time>2017-11-25T13:44:17Z</time>
      </trkpt>
      <trkpt lat="44.78651" lon="5.73409">
        <ele>774</ele>
        <time>2017-11-25T13:44:25Z</time>
      </trkpt>
      <trkpt lat="44.78662" lon="5.73386">
        <ele>774</ele>
        <time>2017-11-25T13:44:39Z</time>
      </trkpt>
      <trkpt lat="44.78678" lon="5.7335">
        <ele>770</ele>
        <time>2017-11-25T13:44:53Z</time>
      </trkpt>
      <trkpt lat="44.78702" lon="5.7331">
        <ele>769</ele>
        <time>2017-11-25T13:44:59Z</time>
      </trkpt>
      <trkpt lat="44.78719" lon="5.73271">
        <ele>768</ele>
        <time>2017-11-25T13:45:01Z</time>
      </trkpt>
      <trkpt lat="44.78726" lon="5.73262">
        <ele>768</ele>
        <time>2017-11-25T13:45:20Z</time>
      </trkpt>
      <trkpt lat="44.78731" lon="5.73259">
        <ele>768</ele>
        <time>2017-11-25T13:45:38Z</time>
      </trkpt>
      <trkpt lat="44.78741" lon="5.73256">
        <ele>767</ele>
        <time>2017-11-25T13:45:58Z</time>
      </trkpt>
      <trkpt lat="44.78773" lon="5.73254">
        <ele>764</ele>
        <time>2017-11-25T13:46:17Z</time>
      </trkpt>
      <trkpt lat="44.78858" lon="5.73249">
        <ele>759</ele>
        <time>2017-11-25T13:46:31Z</time>
      </trkpt>
      <trkpt lat="44.78887" lon="5.73248">
        <ele>759</ele>
        <time>2017-11-25T13:46:36Z</time>
      </trkpt>
      <trkpt lat="44.78911" lon="5.73252">
        <ele>760</ele>
        <time>2017-11-25T13:46:48Z</time>
      </trkpt>
      <trkpt lat="44.78926" lon="5.73257">
        <ele>761</ele>
        <time>2017-11-25T13:46:56Z</time>
      </trkpt>
      <trkpt lat="44.78931" lon="5.73254">
        <ele>761</ele>
        <time>2017-11-25T13:47:04Z</time>
      </trkpt>
      <trkpt lat="44.78936" lon="5.73247">
        <ele>760</ele>
        <time>2017-11-25T13:47:09Z</time>
      </trkpt>
      <trkpt lat="44.7894" lon="5.73237">
        <ele>759</ele>
        <time>2017-11-25T13:47:28Z</time>
      </trkpt>
      <trkpt lat="44.78943" lon="5.73222">
        <ele>759</ele>
        <time>2017-11-25T13:47:33Z</time>
      </trkpt>
      <trkpt lat="44.78945" lon="5.7319">
        <ele>758</ele>
        <time>2017-11-25T13:47:38Z</time>
      </trkpt>
      <trkpt lat="44.78952" lon="5.73105">
        <ele>754</ele>
        <time>2017-11-25T13:47:45Z</time>
      </trkpt>
      <trkpt lat="44.7896" lon="5.73063">
        <ele>751</ele>
        <time>2017-11-25T13:47:51Z</time>
      </trkpt>
      <trkpt lat="44.78971" lon="5.73039">
        <ele>750</ele>
        <time>2017-11-25T13:48:04Z</time>
      </trkpt>
      <trkpt lat="44.78991" lon="5.73012">
        <ele>748</ele>
        <time>2017-11-25T13:48:17Z</time>
      </trkpt>
      <trkpt lat="44.79001" lon="5.73">
        <ele>746</ele>
        <time>2017-11-25T13:48:26Z</time>
      </trkpt>
      <trkpt lat="44.79015" lon="5.72989">
        <ele>745</ele>
        <time>2017-11-25T13:48:30Z</time>
      </trkpt>
      <trkpt lat="44.79048" lon="5.72968">
        <ele>744</ele>
        <time>2017-11-25T13:48:33Z</time>
      </trkpt>
      <trkpt lat="44.79059" lon="5.72965">
        <ele>744</ele>
        <time>2017-11-25T13:48:52Z</time>
      </trkpt>
      <trkpt lat="44.79068" lon="5.72965">
        <ele>744</ele>
        <time>2017-11-25T13:49:04Z</time>
      </trkpt>
      <trkpt lat="44.79097" lon="5.7298">
        <ele>742</ele>
        <time>2017-11-25T13:49:23Z</time>
      </trkpt>
      <trkpt lat="44.79129" lon="5.7299">
        <ele>741</ele>
        <time>2017-11-25T13:49:25Z</time>
      </trkpt>
      <trkpt lat="44.79139" lon="5.72994">
        <ele>740</ele>
        <time>2017-11-25T13:49:28Z</time>
      </trkpt>
      <trkpt lat="44.79146" lon="5.73">
        <ele>741</ele>
        <time>2017-11-25T13:49:35Z</time>
      </trkpt>
      <trkpt lat="44.79156" lon="5.73017">
        <ele>741</ele>
        <time>2017-11-25T13:49:49Z</time>
      </trkpt>
      <trkpt lat="44.79168" lon="5.73039">
        <ele>743</ele>
        <time>2017-11-25T13:49:54Z</time>
      </trkpt>
      <trkpt lat="44.79176" lon="5.7305">
        <ele>743</ele>
        <time>2017-11-25T13:50:04Z</time>
      </trkpt>
      <trkpt lat="44.79184" lon="5.73057">
        <ele>744</ele>
        <time>2017-11-25T13:50:12Z</time>
      </trkpt>
      <trkpt lat="44.79195" lon="5.7306">
        <ele>744</ele>
        <time>2017-11-25T13:50:31Z</time>
      </trkpt>
      <trkpt lat="44.79204" lon="5.7306">
        <ele>745</ele>
        <time>2017-11-25T13:50:44Z</time>
      </trkpt>
      <trkpt lat="44.79212" lon="5.73058">
        <ele>745</ele>
        <time>2017-11-25T13:50:48Z</time>
      </trkpt>
      <trkpt lat="44.79221" lon="5.7305">
        <ele>745</ele>
        <time>2017-11-25T13:50:57Z</time>
      </trkpt>
      <trkpt lat="44.79248" lon="5.73012">
        <ele>743</ele>
        <time>2017-11-25T13:51:01Z</time>
      </trkpt>
      <trkpt lat="44.79267" lon="5.72989">
        <ele>746</ele>
        <time>2017-11-25T13:51:16Z</time>
      </trkpt>
      <trkpt lat="44.79287" lon="5.72971">
        <ele>748</ele>
        <time>2017-11-25T13:51:36Z</time>
      </trkpt>
      <trkpt lat="44.79293" lon="5.72963">
        <ele>749</ele>
        <time>2017-11-25T13:51:52Z</time>
      </trkpt>
      <trkpt lat="44.79299" lon="5.72952">
        <ele>749</ele>
        <time>2017-11-25T13:51:59Z</time>
      </trkpt>
      <trkpt lat="44.7934" lon="5.72866">
        <ele>750</ele>
        <time>2017-11-25T13:52:03Z</time>
      </trkpt>
      <trkpt lat="44.7936" lon="5.72835">
        <ele>749</ele>
        <time>2017-11-25T13:52:13Z</time>
      </trkpt>
      <trkpt lat="44.79368" lon="5.7283">
        <ele>743</ele>
        <time>2017-11-25T13:52:24Z</time>
      </trkpt>
      <trkpt lat="44.7938" lon="5.72828">
        <ele>744</ele>
        <time>2017-11-25T13:52:43Z</time>
      </trkpt>
      <trkpt lat="44.79405" lon="5.72827">
        <ele>748</ele>
        <time>2017-11-25T13:52:50Z</time>
      </trkpt>
      <trkpt lat="44.79421" lon="5.72822">
        <ele>749</ele>
        <time>2017-11-25T13:53:02Z</time>
      </trkpt>
      <trkpt lat="44.79442" lon="5.72809">
        <ele>747</ele>
        <time>2017-11-25T13:53:18Z</time>
      </trkpt>
      <trkpt lat="44.79461" lon="5.728">
        <ele>747</ele>
        <time>2017-11-25T13:53:33Z</time>
      </trkpt>
      <trkpt lat="44.79475" lon="5.72794">
        <ele>747</ele>
        <time>2017-11-25T13:53:38Z</time>
      </trkpt>
      <trkpt lat="44.79487" lon="5.72794">
        <ele>747</ele>
        <time>2017-11-25T13:53:50Z</time>
      </trkpt>
      <trkpt lat="44.795" lon="5.72798">
        <ele>748</ele>
        <time>2017-11-25T13:53:58Z</time>
      </trkpt>
      <trkpt lat="44.79509" lon="5.72806">
        <ele>749</ele>
        <time>2017-11-25T13:54:12Z</time>
      </trkpt>
      <trkpt lat="44.79518" lon="5.72816">
        <ele>749</ele>
        <time>2017-11-25T13:54:14Z</time>
      </trkpt>
      <trkpt lat="44.79554" lon="5.72877">
        <ele>752</ele>
        <time>2017-11-25T13:54:31Z</time>
      </trkpt>
      <trkpt lat="44.7958" lon="5.72916">
        <ele>751</ele>
        <time>2017-11-25T13:54:42Z</time>
      </trkpt>
      <trkpt lat="44.79587" lon="5.72923">
        <ele>751</ele>
        <time>2017-11-25T13:54:47Z</time>
      </trkpt>
      <trkpt lat="44.7959" lon="5.72933">
        <ele>751</ele>
        <time>2017-11-25T13:55:07Z</time>
      </trkpt>
      <trkpt lat="44.79594" lon="5.72948">
        <ele>752</ele>
        <time>2017-11-25T13:55:14Z</time>
      </trkpt>
      <trkpt lat="44.796" lon="5.7296">
        <ele>752</ele>
        <time>2017-11-25T13:55:22Z</time>
      </trkpt>
      <trkpt lat="44.79651" lon="5.73005">
        <ele>755</ele>
        <time>2017-11-25T13:55:35Z</time>
      </trkpt>
      <trkpt lat="44.79707" lon="5.73054">
        <ele>757</ele>
        <time>2017-11-25T13:55:43Z</time>
      </trkpt>
      <trkpt lat="44.79732" lon="5.7308">
        <ele>757</ele>
        <time>2017-11-25T13:55:50Z</time>
      </trkpt>
      <trkpt lat="44.79738" lon="5.73093">
        <ele>759</ele>
        <time>2017-11-25T13:55:56Z</time>
      </trkpt>
      <trkpt lat="44.79739" lon="5.73111">
        <ele>761</ele>
        <time>2017-11-25T13:56:02Z</time>
      </trkpt>
      <trkpt lat="44.7973" lon="5.73186">
        <ele>767</ele>
        <time>2017-11-25T13:56:05Z</time>
      </trkpt>
      <trkpt lat="44.79728" lon="5.73214">
        <ele>769</ele>
        <time>2017-11-25T13:56:24Z</time>
      </trkpt>
      <trkpt lat="44.79729" lon="5.7323">
        <ele>770</ele>
        <time>2017-11-25T13:56:44Z</time>
      </trkpt>
      <trkpt lat="44.79732" lon="5.73247">
        <ele>770</ele>
        <time>2017-11-25T13:56:49Z</time>
      </trkpt>
      <trkpt lat="44.79739" lon="5.73276">
        <ele>775</ele>
        <time>2017-11-25T13:57:00Z</time>
      </trkpt>
      <trkpt lat="44.79776" lon="5.73407">
        <ele>782</ele>
        <time>2017-11-25T13:57:06Z</time>
      </trkpt>
      <trkpt lat="44.7978" lon="5.73437">
        <ele>788</ele>
        <time>2017-11-25T13:57:13Z</time>
      </trkpt>
      <trkpt lat="44.79781" lon="5.73479">
        <ele>791</ele>
        <time>2017-11-25T13:57:16Z</time>
      </trkpt>
      <trkpt lat="44.79783" lon="5.73492">
        <ele>791</ele>
        <time>2017-11-25T13:57:32Z</time>
      </trkpt>
      <trkpt lat="44.79789" lon="5.73499">
        <ele>791</ele>
        <time>2017-11-25T13:57:49Z</time>
      </trkpt>
      <trkpt lat="44.79795" lon="5.73501">
        <ele>798</ele>
        <time>2017-11-25T13:58:07Z</time>
      </trkpt>
      <trkpt lat="44.79803" lon="5.73498">
        <ele>791</ele>
        <time>2017-11-25T13:58:19Z</time>
      </trkpt>
      <trkpt lat="44.79813" lon="5.7349">
        <ele>792</ele>
        <time>2017-11-25T13:58:23Z</time>
      </trkpt>
      <trkpt lat="44.79826" lon="5.73477">
        <ele>791</ele>
        <time>2017-11-25T13:58:35Z</time>
      </trkpt>
      <trkpt lat="44.7986" lon="5.73455">
        <ele>793</ele>
        <time>2017-11-25T13:58:44Z</time>
      </trkpt>
      <trkpt lat="44.79868" lon="5.73451">
        <ele>793</ele>
        <time>2017-11-25T13:59:01Z</time>
      </trkpt>
      <trkpt lat="44.7988" lon="5.73446">
        <ele>794</ele>
        <time>2017-11-25T13:59:12Z</time>
      </trkpt>
      <trkpt lat="44.79912" lon="5.73441">
        <ele>795</ele>
        <time>2017-11-25T13:59:23Z</time>
      </trkpt>
      <trkpt lat="44.79939" lon="5.73436">
        <ele>802</ele>
        <time>2017-11-25T13:59:26Z</time>
      </trkpt>
      <trkpt lat="44.79945" lon="5.73432">
        <ele>803</ele>
        <time>2017-11-25T13:59:33Z</time>
      </trkpt>
      <trkpt lat="44.80002" lon="5.73399">
        <ele>806</ele>
        <time>2017-11-25T13:59:45Z</time>
      </trkpt>
      <trkpt lat="44.80025" lon="5.7339">
        <ele>805</ele>
        <time>2017-11-25T13:59:55Z</time>
      </trkpt>
      <trkpt lat="44.80041" lon="5.73388">
        <ele>805</ele>
        <time>2017-11-25T13:59:59Z</time>
      </trkpt>
      <trkpt lat="44.80069" lon="5.73394">
        <ele>806</ele>
        <time>2017-11-25T14:00:18Z</time>
      </trkpt>
      <trkpt lat="44.80169" lon="5.73453">
        <ele>810</ele>
        <time>2017-11-25T14:00:20Z</time>
      </trkpt>
      <trkpt lat="44.80236" lon="5.73496">
        <ele>809</ele>
        <time>2017-11-25T14:00:29Z</time>
      </trkpt>
      <trkpt lat="44.80289" lon="5.73528">
        <ele>805</ele>
        <time>2017-11-25T14:00:49Z</time>
      </trkpt>
      <trkpt lat="44.80304" lon="5.73533">
        <ele>805</ele>
        <time>2017-11-25T14:00:52Z</time>
      </trkpt>
      <trkpt lat="44.80313" lon="5.73533">
        <ele>804</ele>
        <time>2017-11-25T14:01:10Z</time>
      </trkpt>
      <trkpt lat="44.80335" lon="5.7352">
        <ele>799</ele>
        <time>2017-11-25T14:01:26Z</time>
      </trkpt>
      <trkpt lat="44.80411" lon="5.73449">
        <ele>801</ele>
        <time>2017-11-25T14:01:39Z</time>
      </trkpt>
      <trkpt lat="44.80477" lon="5.73395">
        <ele>793</ele>
        <time>2017-11-25T14:01:46Z</time>
      </trkpt>
      <trkpt lat="44.80494" lon="5.73366">
        <ele>792</ele>
        <time>2017-11-25T14:01:52Z</time>
      </trkpt>
      <trkpt lat="44.80497" lon="5.73364">
        <ele>792</ele>
        <time>2017-11-25T14:02:04Z</time>
      </trkpt>
      <trkpt lat="44.80502" lon="5.73369">
        <ele>782</ele>
        <time>2017-11-25T14:02:20Z</time>
      </trkpt>
      <trkpt lat="44.80502" lon="5.73373">
        <ele>781</ele>
        <time>2017-11-25T14:02:30Z</time>
      </trkpt>
      <trkpt lat="44.80498" lon="5.73391">
        <ele>791</ele>
        <time>2017-11-25T14:02:42Z</time>
      </trkpt>
      <trkpt lat="44.80486" lon="5.7343">
        <ele>788</ele>
        <time>2017-11-25T14:02:50Z</time>
      </trkpt>
      <trkpt lat="44.80466" lon="5.73507">
        <ele>783</ele>
        <time>2017-11-25T14:03:01Z</time>
      </trkpt>
      <trkpt lat="44.80431" lon="5.73624">
        <ele>780</ele>
        <time>2017-11-25T14:03:13Z</time>
      </trkpt>
      <trkpt lat="44.80388" lon="5.73762">
        <ele>780</ele>
        <time>2017-11-25T14:03:20Z</time>
      </trkpt>
      <trkpt lat="44.80377" lon="5.73786">
        <ele>780</ele>
        <time>2017-11-25T14:03:29Z</time>
      </trkpt>
      <trkpt lat="44.80334" lon="5.73863">
        <ele>771</ele>
        <time>2017-11-25T14:03:49Z</time>
      </trkpt>
      <trkpt lat="44.80326" lon="5.73881">
        <ele>779</ele>
        <time>2017-11-25T14:03:58Z</time>
      </trkpt>
      <trkpt lat="44.80324" lon="5.73891">
        <ele>778</ele>
        <time>2017-11-25T14:04:07Z</time>
      </trkpt>
      <trkpt lat="44.80324" lon="5.739">
        <ele>777</ele>
        <time>2017-11-25T14:04:21Z</time>
      </trkpt>
      <trkpt lat="44.8033" lon="5.73908">
        <ele>774</ele>
        <time>2017-11-25T14:04:23Z</time>
      </trkpt>
      <trkpt lat="44.8034" lon="5.73912">
        <ele>769</ele>
        <time>2017-11-25T14:04:42Z</time>
      </trkpt>
      <trkpt lat="44.80345" lon="5.73912">
        <ele>769</ele>
        <time>2017-11-25T14:04:57Z</time>
      </trkpt>
      <trkpt lat="44.80371" lon="5.73899">
        <ele>767</ele>
        <time>2017-11-25T14:05:07Z</time>
      </trkpt>
      <trkpt lat="44.80427" lon="5.7387">
        <ele>760</ele>
        <time>2017-11-25T14:05:17Z</time>
      </trkpt>
      <trkpt lat="44.80436" lon="5.7387">
        <ele>760</ele>
        <time>2017-11-25T14:05:29Z</time>
      </trkpt>
      <trkpt lat="44.80442" lon="5.73874">
        <ele>759</ele>
        <time>2017-11-25T14:05:31Z</time>
      </trkpt>
      <trkpt lat="44.80445" lon="5.73889">
        <ele>758</ele>
        <time>2017-11-25T14:05:50Z</time>
      </trkpt>
      <trkpt lat="44.80443" lon="5.73897">
        <ele>758</ele>
        <time>2017-11-25T14:06:05Z</time>
      </trkpt>
      <trkpt lat="44.80438" lon="5.73902">
        <ele>758</ele>
        <time>2017-11-25T14:06:17Z</time>
      </trkpt>
      <trkpt lat="44.8041" lon="5.73917">
        <ele>757</ele>
        <time>2017-11-25T14:06:30Z</time>
      </trkpt>
      <trkpt lat="44.80399" lon="5.73927">
        <ele>759</ele>
        <time>2017-11-25T14:06:43Z</time>
      </trkpt>
      <trkpt lat="44.80385" lon="5.7395">
        <ele>760</ele>
        <time>2017-11-25T14:06:49Z</time>
      </trkpt>
      <trkpt lat="44.80371" lon="5.73976">
        <ele>760</ele>
        <time>2017-11-25T14:07:08Z</time>
      </trkpt>
      <trkpt lat="44.80368" lon="5.73997">
        <ele>760</ele>
        <time>2017-11-25T14:07:21Z</time>
      </trkpt>
      <trkpt lat="44.80368" lon="5.74017">
        <ele>754</ele>
        <time>2017-11-25T14:07:38Z</time>
      </trkpt>
      <trkpt lat="44.80374" lon="5.74039">
        <ele>753</ele>
        <time>2017-11-25T14:07:56Z</time>
      </trkpt>
      <trkpt lat="44.80381" lon="5.74055">
        <ele>751</ele>
        <time>2017-11-25T14:08:03Z</time>
      </trkpt>
      <trkpt lat="44.804" lon="5.74069">
        <ele>749</ele>
        <time>2017-11-25T14:08:11Z</time>
      </trkpt>
      <trkpt lat="44.80421" lon="5.74072">
        <ele>744</ele>
        <time>2017-11-25T14:08:26Z</time>
      </trkpt>
      <trkpt lat="44.80432" lon="5.74069">
        <ele>744</ele>
        <time>2017-11-25T14:08:31Z</time>
      </trkpt>
      <trkpt lat="44.80443" lon="5.7406">
        <ele>744</ele>
        <time>2017-11-25T14:08:33Z</time>
      </trkpt>
      <trkpt lat="44.80464" lon="5.74038">
        <ele>744</ele>
        <time>2017-11-25T14:08:53Z</time>
      </trkpt>
      <trkpt lat="44.80493" lon="5.74003">
        <ele>743</ele>
        <time>2017-11-25T14:09:13Z</time>
      </trkpt>
      <trkpt lat="44.80514" lon="5.73978">
        <ele>743</ele>
        <time>2017-11-25T14:09:29Z</time>
      </trkpt>
      <trkpt lat="44.80522" lon="5.73975">
        <ele>742</ele>
        <time>2017-11-25T14:09:38Z</time>
      </trkpt>
      <trkpt lat="44.80529" lon="5.73977">
        <ele>742</ele>
        <time>2017-11-25T14:09:41Z</time>
      </trkpt>
      <trkpt lat="44.80533" lon="5.73983">
        <ele>741</ele>
        <time>2017-11-25T14:09:47Z</time>
      </trkpt>
      <trkpt lat="44.80536" lon="5.73995">
        <ele>741</ele>
        <time>2017-11-25T14:10:06Z</time>
      </trkpt>
      <trkpt lat="44.80534" lon="5.74003">
        <ele>737</ele>
        <time>2017-11-25T14:10:19Z</time>
      </trkpt>
      <trkpt lat="44.80504" lon="5.74046">
        <ele>737</ele>
        <time>2017-11-25T14:10:37Z</time>
      </trkpt>
      <trkpt lat="44.80484" lon="5.74073">
        <ele>741</ele>
        <time>2017-11-25T14:10:41Z</time>
      </trkpt>
      <trkpt lat="44.80481" lon="5.74093">
        <ele>737</ele>
        <time>2017-11-25T14:10:49Z</time>
      </trkpt>
      <trkpt lat="44.80488" lon="5.74104">
        <ele>737</ele>
        <time>2017-11-25T14:11:08Z</time>
      </trkpt>
      <trkpt lat="44.80509" lon="5.74111">
        <ele>735</ele>
        <time>2017-11-25T14:11:19Z</time>
      </trkpt>
      <trkpt lat="44.80582" lon="5.74124">
        <ele>733</ele>
        <time>2017-11-25T14:11:25Z</time>
      </trkpt>
      <trkpt lat="44.80597" lon="5.74126">
        <ele>739</ele>
        <time>2017-11-25T14:11:41Z</time>
      </trkpt>
      <trkpt lat="44.80601" lon="5.74125">
        <ele>739</ele>
        <time>2017-11-25T14:11:45Z</time>
      </trkpt>
      <trkpt lat="44.80609" lon="5.74119">
        <ele>740</ele>
        <time>2017-11-25T14:11:58Z</time>
      </trkpt>
      <trkpt lat="44.80623" lon="5.74086">
        <ele>739</ele>
        <time>2017-11-25T14:12:15Z</time>
      </trkpt>
      <trkpt lat="44.8064" lon="5.74069">
        <ele>735</ele>
        <time>2017-11-25T14:12:25Z</time>
      </trkpt>
      <trkpt lat="44.80766" lon="5.73986">
        <ele>733</ele>
        <time>2017-11-25T14:12:40Z</time>
      </trkpt>
      <trkpt lat="44.80778" lon="5.73984">
        <ele>733</ele>
        <time>2017-11-25T14:12:57Z</time>
      </trkpt>
      <trkpt lat="44.80805" lon="5.73986">
        <ele>735</ele>
        <time>2017-11-25T14:13:11Z</time>
      </trkpt>
      <trkpt lat="44.80836" lon="5.73992">
        <ele>741</ele>
        <time>2017-11-25T14:13:31Z</time>
      </trkpt>
      <trkpt lat="44.80903" lon="5.74001">
        <ele>748</ele>
        <time>2017-11-25T14:13:40Z</time>
      </trkpt>
      <trkpt lat="44.80919" lon="5.74003">
        <ele>747</ele>
        <time>2017-11-25T14:13:51Z</time>
      </trkpt>
      <trkpt lat="44.80932" lon="5.74002">
        <ele>751</ele>
        <time>2017-11-25T14:14:07Z</time>
      </trkpt>
      <trkpt lat="44.80943" lon="5.73998">
        <ele>748</ele>
        <time>2017-11-25T14:14:15Z</time>
      </trkpt>
      <trkpt lat="44.8095" lon="5.73991">
        <ele>748</ele>
        <time>2017-11-25T14:14:24Z</time>
      </trkpt>
      <trkpt lat="44.80957" lon="5.73973">
        <ele>749</ele>
        <time>2017-11-25T14:14:41Z</time>
      </trkpt>
      <trkpt lat="44.80961" lon="5.73918">
        <ele>748</ele>
        <time>2017-11-25T14:14:46Z</time>
      </trkpt>
      <trkpt lat="44.80965" lon="5.73896">
        <ele>745</ele>
        <time>2017-11-25T14:15:03Z</time>
      </trkpt>
      <trkpt lat="44.8097" lon="5.73887">
        <ele>746</ele>
        <time>2017-11-25T14:15:08Z</time>
      </trkpt>
      <trkpt lat="44.80979" lon="5.73885">
        <ele>746</ele>
        <time>2017-11-25T14:15:12Z</time>
      </trkpt>
      <trkpt lat="44.80991" lon="5.73891">
        <ele>748</ele>
        <time>2017-11-25T14:15:16Z</time>
      </trkpt>
      <trkpt lat="44.80996" lon="5.73899">
        <ele>749</ele>
        <time>2017-11-25T14:15:34Z</time>
      </trkpt>
      <trkpt lat="44.80999" lon="5.73913">
        <ele>752</ele>
        <time>2017-11-25T14:15:41Z</time>
      </trkpt>
      <trkpt lat="44.81003" lon="5.74001">
        <ele>757</ele>
        <time>2017-11-25T14:15:56Z</time>
      </trkpt>
      <trkpt lat="44.81002" lon="5.74026">
        <ele>759</ele>
        <time>2017-11-25T14:16:13Z</time>
      </trkpt>
      <trkpt lat="44.80998" lon="5.74044">
        <ele>757</ele>
        <time>2017-11-25T14:16:24Z</time>
      </trkpt>
      <trkpt lat="44.8099" lon="5.74068">
        <ele>759</ele>
        <time>2017-11-25T14:16:26Z</time>
      </trkpt>
      <trkpt lat="44.80989" lon="5.74082">
        <ele>760</ele>
        <time>2017-11-25T14:16:46Z</time>
      </trkpt>
      <trkpt lat="44.80992" lon="5.74091">
        <ele>763</ele>
        <time>2017-11-25T14:17:06Z</time>
      </trkpt>
      <trkpt lat="44.80998" lon="5.741">
        <ele>763</ele>
        <time>2017-11-25T14:17:10Z</time>
      </trkpt>
      <trkpt lat="44.8101" lon="5.74106">
        <ele>763</ele>
        <time>2017-11-25T14:17:29Z</time>
      </trkpt>
      <trkpt lat="44.81034" lon="5.74112">
        <ele>763</ele>
        <time>2017-11-25T14:17:39Z</time>
      </trkpt>
      <trkpt lat="44.81083" lon="5.74132">
        <ele>763</ele>
        <time>2017-11-25T14:17:53Z</time>
      </trkpt>
      <trkpt lat="44.81102" lon="5.74143">
        <ele>759</ele>
        <time>2017-11-25T14:18:07Z</time>
      </trkpt>
      <trkpt lat="44.81114" lon="5.7416">
        <ele>759</ele>
        <time>2017-11-25T14:18:27Z</time>
      </trkpt>
      <trkpt lat="44.81122" lon="5.7418">
        <ele>758</ele>
        <time>2017-11-25T14:18:36Z</time>
      </trkpt>
      <trkpt lat="44.81139" lon="5.74251">
        <ele>757</ele>
        <time>2017-11-25T14:18:46Z</time>
      </trkpt>
      <trkpt lat="44.81144" lon="5.74262">
        <ele>757</ele>
        <time>2017-11-25T14:18:51Z</time>
      </trkpt>
      <trkpt lat="44.81149" lon="5.74267">
        <ele>757</ele>
        <time>2017-11-25T14:18:56Z</time>
      </trkpt>
      <trkpt lat="44.8116" lon="5.74268">
        <ele>757</ele>
        <time>2017-11-25T14:18:58Z</time>
      </trkpt>
      <trkpt lat="44.81166" lon="5.7426">
        <ele>756</ele>
        <time>2017-11-25T14:19:16Z</time>
      </trkpt>
      <trkpt lat="44.81174" lon="5.74228">
        <ele>753</ele>
        <time>2017-11-25T14:19:21Z</time>
      </trkpt>
      <trkpt lat="44.81189" lon="5.74166">
        <ele>751</ele>
        <time>2017-11-25T14:19:33Z</time>
      </trkpt>
      <trkpt lat="44.81197" lon="5.7415">
        <ele>750</ele>
        <time>2017-11-25T14:19:49Z</time>
      </trkpt>
      <trkpt lat="44.81215" lon="5.74136">
        <ele>749</ele>
        <time>2017-11-25T14:19:53Z</time>
      </trkpt>
      <trkpt lat="44.81229" lon="5.74135">
        <ele>748</ele>
        <time>2017-11-25T14:20:13Z</time>
      </trkpt>
      <trkpt lat="44.81244" lon="5.74143">
        <ele>748</ele>
        <time>2017-11-25T14:20:21Z</time>
      </trkpt>
      <trkpt lat="44.81254" lon="5.74156">
        <ele>745</ele>
        <time>2017-11-25T14:20:34Z</time>
      </trkpt>
      <trkpt lat="44.81265" lon="5.74179">
        <ele>746</ele>
        <time>2017-11-25T14:20:36Z</time>
      </trkpt>
      <trkpt lat="44.81273" lon="5.74207">
        <ele>746</ele>
        <time>2017-11-25T14:20:56Z</time>
      </trkpt>
      <trkpt lat="44.81284" lon="5.74242">
        <ele>746</ele>
        <time>2017-11-25T14:21:10Z</time>
      </trkpt>
      <trkpt lat="44.81292" lon="5.74246">
        <ele>746</ele>
        <time>2017-11-25T14:21:21Z</time>
      </trkpt>
      <trkpt lat="44.81297" lon="5.74244">
        <ele>746</ele>
        <time>2017-11-25T14:21:41Z</time>
      </trkpt>
      <trkpt lat="44.81302" lon="5.74253">
        <ele>748</ele>
        <time>2017-11-25T14:22:00Z</time>
      </trkpt>
      <trkpt lat="44.81307" lon="5.74261">
        <ele>748</ele>
        <time>2017-11-25T14:22:06Z</time>
      </trkpt>
      <trkpt lat="44.81318" lon="5.74272">
        <ele>748</ele>
        <time>2017-11-25T14:22:19Z</time>
      </trkpt>
      <trkpt lat="44.81346" lon="5.74295">
        <ele>749</ele>
        <time>2017-11-25T14:22:31Z</time>
      </trkpt>
      <trkpt lat="44.81401" lon="5.7433">
        <ele>750</ele>
        <time>2017-11-25T14:22:33Z</time>
      </trkpt>
      <trkpt lat="44.81547" lon="5.74418">
        <ele>757</ele>
        <time>2017-11-25T14:22:48Z</time>
      </trkpt>
      <trkpt lat="44.81609" lon="5.74453">
        <ele>757</ele>
        <time>2017-11-25T14:23:07Z</time>
      </trkpt>
      <trkpt lat="44.81617" lon="5.74461">
        <ele>758</ele>
        <time>2017-11-25T14:23:24Z</time>
      </trkpt>
      <trkpt lat="44.81628" lon="5.74475">
        <ele>758</ele>
        <time>2017-11-25T14:23:30Z</time>
      </trkpt>
      <trkpt lat="44.81635" lon="5.74488">
        <ele>758</ele>
        <time>2017-11-25T14:23:41Z</time>
      </trkpt>
      <trkpt lat="44.81641" lon="5.74498">
        <ele>758</ele>
        <time>2017-11-25T14:23:56Z</time>
      </trkpt>
      <trkpt lat="44.81642" lon="5.74529">
        <ele>762</ele>
        <time>2017-11-25T14:24:12Z</time>
      </trkpt>
      <trkpt lat="44.81651" lon="5.74633">
        <ele>765</ele>
        <time>2017-11-25T14:24:15Z</time>
      </trkpt>
      <trkpt lat="44.81654" lon="5.74671">
        <ele>765</ele>
        <time>2017-11-25T14:24:27Z</time>
      </trkpt>
      <trkpt lat="44.81664" lon="5.74769">
        <ele>769</ele>
        <time>2017-11-25T14:24:47Z</time>
      </trkpt>
      <trkpt lat="44.81666" lon="5.7479">
        <ele>769</ele>
        <time>2017-11-25T14:25:05Z</time>
      </trkpt>
      <trkpt lat="44.81673" lon="5.74889">
        <ele>771</ele>
        <time>2017-11-25T14:25:16Z</time>
      </trkpt>
      <trkpt lat="44.81685" lon="5.75022">
        <ele>777</ele>
        <time>2017-11-25T14:25:29Z</time>
      </trkpt>
    </trkseg>
  </trk>
</gpx>